Silent Thunder Games - Total: 5504
1 2 3 4 5 6
Rank Song Name Score PGAMB Combo Time
1,017 Harry Potter Techno Remix [FC] [PB] 940,575 606 - 1 - 0 - 0 - 0 607 2022-07-02 21:43:39
1,240 Harry Potter Techno Remix [FC] [SR] 940,300 605 - 2 - 0 - 0 - 0 607 2022-07-02 21:41:41
1 Galaxy9 [AAA] [FC] [SR] 923,800 596 - 0 - 0 - 0 - 0 596 2022-07-02 21:39:26
199 Impulse [SR] 2,176,760 1,831 - 4 - 0 - 1 - 4 1,169 2022-07-02 17:23:32
323 i love (orange things) [SR] 1,518,155 1,038 - 6 - 1 - 1 - 7 946 2022-07-02 17:18:28
187 Humanism [SR] 1,691,005 1,522 - 1 - 0 - 1 - 3 854 2022-07-02 17:14:35
517 He's a Pirate - F-777 ReMiX [FC] [PB] 1,496,410 959 - 7 - 1 - 0 - 1 967 2022-07-02 17:10:40
674 He's a Pirate - F-777 ReMiX [PB] 1,481,390 954 - 11 - 1 - 1 - 4 954 2022-07-02 17:07:24
330 Grassland Filled With Fighting Spirit [SR] 1,086,455 921 - 8 - 1 - 1 - 2 578 2022-07-02 17:03:30
337 Finder [FC] [PB] 1,065,765 682 - 6 - 1 - 0 - 2 689 2022-07-02 17:00:28
480 Finder [FC] 1,063,030 673 - 14 - 2 - 0 - 4 689 2022-07-02 16:58:39
419 Finder [FC] [SR] 1,064,405 678 - 9 - 2 - 0 - 4 689 2022-07-02 16:56:06
320 Final Step [FC] [SR] 2,968,970 1,914 - 1 - 1 - 0 - 3 1,916 2022-07-02 16:53:45
312 Excessive Sex [FC] [SR] 1,540,265 988 - 7 - 0 - 0 - 3 995 2022-07-02 16:48:22
44 Dawgs In Da House [FC] [SR] 2,040,780 1,315 - 2 - 0 - 0 - 1 1,317 2022-07-02 16:45:43
58 Cybernaut 2 Opening Theme [FC] [PB] 1,238,845 794 - 4 - 3 - 0 - 6 801 2022-07-02 16:42:45
60 Cybernaut 2 Opening Theme [SR] 1,220,820 793 - 5 - 1 - 2 - 7 784 2022-07-02 16:41:00
1 Decadence [AAA] [FC] [SR] 1,545,350 997 - 0 - 0 - 0 - 0 997 2022-07-02 01:46:11
770 Fantranstic [FC] [PB] 1,400,925 903 - 1 - 0 - 0 - 0 904 2022-07-02 01:42:28
1 Etude To A Dragon [AAA] [FC] [PB] 1,191,950 769 - 0 - 0 - 0 - 0 769 2022-07-02 01:38:24
28 Walking the Streets of a Former Hell [FC] [PB] 3,146,655 2,026 - 5 - 0 - 0 - 1 2,031 2022-07-02 01:30:05
41 Walking the Streets of a Former Hell [PB] 2,360,715 2,016 - 13 - 0 - 2 - 2 1,249 2022-07-02 01:26:08
374 CS Custom Gun Sounds [FC] [PB] 1,047,780 676 - 0 - 0 - 0 - 1 676 2022-07-02 01:21:29
495 CS Custom Gun Sounds 968,900 675 - 0 - 0 - 1 - 2 598 2022-07-02 01:17:53
471 K8107 [FC] [PB] 1,658,125 1,064 - 7 - 0 - 0 - 0 1,071 2022-07-02 01:10:54
810 K8107 [SR] 1,245,280 1,046 - 22 - 0 - 3 - 7 665 2022-07-02 01:08:43
105 Identity [Part 5] [PB] 1,323,620 1,285 - 10 - 2 - 3 - 3 615 2022-07-02 01:05:30
121 Identity [Part 5] [SR] 1,390,965 1,277 - 19 - 2 - 2 - 5 684 2022-07-02 01:03:07
473 Grocery Escape Plan [PB] 1,023,610 895 - 39 - 1 - 4 - 9 522 2022-07-02 01:00:09
656 Grocery Escape Plan [SR] 888,190 850 - 76 - 0 - 13 - 9 404 2022-07-02 00:58:35
364 Goatstep [SR] 1,563,905 1,097 - 7 - 0 - 1 - 3 959 2022-07-02 00:56:16
497 ETERNAL DRAIN [FC] [PB] 2,020,545 1,298 - 6 - 1 - 0 - 3 1,305 2022-07-02 00:37:24
515 Skeletor [PB] 1,322,975 1,312 - 31 - 0 - 3 - 11 594 2022-07-02 00:30:43
699 Skeletor [SR] 1,861,150 1,287 - 50 - 4 - 5 - 6 1,141 2022-07-02 00:22:08
822 All i wanna do is touch your powerpoints [PB] 1,555,340 1,366 - 46 - 0 - 5 - 3 793 2022-07-02 00:18:18
984 All i wanna do is touch your powerpoints [PB] 1,393,740 1,361 - 45 - 1 - 10 - 7 636 2022-07-02 00:15:33
1,116 All i wanna do is touch your powerpoints [SR] 1,546,750 1,345 - 64 - 0 - 8 - 6 792 2022-07-02 00:13:03
282 CRASH the BEAT! [FC] [SR] 2,985,710 1,923 - 4 - 0 - 0 - 2 1,927 2022-07-02 00:04:11
309 center piercing [SR] 1,474,415 1,112 - 10 - 1 - 3 - 3 861 2022-07-01 23:59:30
161 Celsus [FC] [SR] 1,875,185 1,209 - 1 - 0 - 0 - 2 1,210 2022-07-01 23:56:46
29 Bliss [FC] [SR] 1,442,145 928 - 3 - 0 - 0 - 4 931 2022-07-01 23:53:53
275 Air.sul G iRock [PB] 1,887,340 1,383 - 0 - 0 - 1 - 0 1,127 2022-07-01 23:49:59
38 A ninja among culturachippers [FC] [SR] 2,031,775 1,310 - 1 - 0 - 0 - 0 1,311 2022-07-01 23:46:06
192 Across The Ocean [FC] [SR] 1,672,840 1,076 - 4 - 0 - 0 - 3 1,080 2022-07-01 23:42:48
487 {Midnight} [FC] [PB] 1,476,855 952 - 1 - 0 - 0 - 1 953 2022-07-01 23:39:16
715 {Midnight} [SR] 1,059,205 949 - 2 - 1 - 1 - 2 537 2022-07-01 23:37:05
663 {Rose} [FC] [PB] 2,016,275 1,300 - 1 - 0 - 0 - 0 1,301 2022-07-01 23:32:47
607 {I Don't Need You Anymore} [SR] 2,467,350 1,949 - 10 - 0 - 1 - 2 1,393 2022-07-01 23:28:56
96 ZOOQUU [FC] [SR] 1,424,840 916 - 4 - 0 - 0 - 3 920 2022-07-01 23:21:20
191 Zeitmesser [FC] [SR] 1,399,800 900 - 3 - 1 - 0 - 4 904 2022-07-01 23:18:38
244 Yellow Leaves [FC] [SR] 2,295,000 1,479 - 2 - 0 - 0 - 0 1,481 2022-07-01 23:15:09
164 WiLD PLANET [FC] [SR] 2,133,465 1,374 - 3 - 0 - 0 - 3 1,377 2022-07-01 23:11:17
159 We Met Dat Night [FC] [SR] 1,416,425 913 - 1 - 0 - 0 - 0 914 2022-07-01 23:06:58
284 Velaciela [SR] 1,683,575 1,238 - 11 - 0 - 1 - 2 1,000 2022-07-01 23:03:59
153 unisonote [FC] [SR] 1,760,895 1,132 - 5 - 0 - 0 - 4 1,137 2022-07-01 22:59:47
81 ULTRAnumb (Paul Udarov Remix) [FC] [SR] 3,041,920 1,956 - 8 - 0 - 0 - 4 1,964 2022-07-01 22:56:55
1 Space Doggity [AAA] [FC] [SR] 1,005,950 649 - 0 - 0 - 0 - 0 649 2022-07-01 22:52:40
577 The Final Conflict [FC] [SR] 1,633,560 1,049 - 6 - 0 - 0 - 2 1,055 2022-07-01 22:47:09
454 Tamashii [FC] [SR] 1,752,045 1,123 - 9 - 0 - 0 - 4 1,132 2022-07-01 22:44:10
384 Tachyon [SR] 1,442,695 1,060 - 15 - 0 - 1 - 6 856 2022-07-01 22:41:30
133 Summer Colours Arch [FC] [PB] 1,338,610 862 - 2 - 0 - 0 - 2 864 2022-07-01 08:27:01
213 Summer Colours Arch [SR] 1,201,120 855 - 8 - 0 - 1 - 1 729 2022-07-01 08:24:59
16 Walking the Streets of a Former Hell [FC] [PB] 3,142,490 2,011 - 20 - 0 - 0 - 3 2,031 2022-07-01 07:52:10
17 Walking the Streets of a Former Hell [SR] 2,349,900 2,004 - 26 - 0 - 1 - 7 1,241 2022-07-01 07:44:31
1 A Tiny Spaceship's Final Mission [AAA] [FC] [SR] 1,500,400 968 - 0 - 0 - 0 - 0 968 2022-07-01 07:20:28
1,308 Internal Cannon 274,895 230 - 8 - 1 - 22 - 2 153 2022-06-30 22:48:47
373 Internal Cannon [SR] 1,034,400 1,141 - 22 - 2 - 7 - 7 403 2022-06-30 22:46:24
91 Illusions of Magic [FC] [SR] 2,151,580 1,367 - 25 - 1 - 0 - 10 1,393 2022-06-30 22:43:57
346 Hatsune Miku no Gekishou [SR] 1,699,075 1,409 - 17 - 0 - 1 - 12 920 2022-06-30 22:40:43
140 Gym Training Montage [SR] 2,400,745 1,951 - 11 - 0 - 1 - 1 1,325 2022-06-30 22:37:27
171 Gruntilda's Final Battle [FC] [SR] 2,281,925 1,465 - 8 - 1 - 0 - 4 1,474 2022-06-30 22:24:49
352 Finder Keepers [SR] 1,401,655 1,107 - 4 - 1 - 1 - 2 792 2022-06-30 22:21:13
132 False White [PB] 1,319,300 1,160 - 6 - 0 - 1 - 2 680 2022-06-30 22:18:50
231 False White [SR] 1,291,815 1,147 - 14 - 3 - 3 - 6 658 2022-06-30 22:16:37
421 Etude On A Nimbus [PB] 2,029,650 1,455 - 10 - 0 - 1 - 2 1,227 2022-06-30 22:14:01
3,063 Etude On A Nimbus 240,030 144 - 10 - 4 - 0 - 7 158 2022-06-30 22:10:59
560 Etude On A Nimbus [SR] 1,904,210 1,445 - 16 - 2 - 3 - 6 1,106 2022-06-30 22:10:03
203 EBONY & IVORY [Standard] [PB] 1,595,045 1,058 - 20 - 1 - 1 - 5 1,008 2022-06-30 22:06:45
232 EBONY & IVORY [Standard] [SR] 1,528,920 1,050 - 26 - 2 - 2 - 11 945 2022-06-30 22:03:28
293 Direct Advance [PB] 1,618,005 1,049 - 12 - 3 - 1 - 5 1,038 2022-06-30 22:01:07
334 Direct Advance [PB] 914,730 1,044 - 15 - 1 - 5 - 5 338 2022-06-30 21:58:51
398 Direct Advance [SR] 1,169,395 1,024 - 34 - 3 - 4 - 4 598 2022-06-30 21:56:22
131 Find a Way Out [SR] 1,567,320 1,476 - 34 - 2 - 2 - 16 747 2022-06-30 17:00:40
608 Fast Asleep [PB] 756,930 656 - 5 - 3 - 1 - 5 395 2022-06-30 16:57:21
636 Fast Asleep [SR] 876,650 656 - 4 - 4 - 1 - 8 515 2022-06-30 16:55:05
629 EuroMorroc (Clean Edit) [PB] 979,980 988 - 44 - 6 - 5 - 15 426 2022-06-30 16:53:04
706 EuroMorroc (Clean Edit) 965,120 962 - 66 - 8 - 7 - 20 420 2022-06-30 16:51:14
373 EuroMorroc (Clean Edit) [0.8x] 1,174,705 1,031 - 11 - 0 - 1 - 3 605 2022-06-30 16:47:39
671 EuroMorroc (Clean Edit) [PB] 938,010 971 - 63 - 5 - 4 - 20 388 2022-06-30 16:45:12
681 EuroMorroc (Clean Edit) [PB] 831,265 973 - 56 - 7 - 7 - 25 283 2022-06-30 16:42:05
691 EuroMorroc (Clean Edit) [SR] 900,940 967 - 61 - 9 - 6 - 16 354 2022-06-30 16:40:15
933 ETERNAL DRAIN [PB] 1,714,525 1,280 - 23 - 0 - 2 - 9 1,005 2022-06-30 16:37:56
1,188 ETERNAL DRAIN [SR] 1,457,200 1,262 - 38 - 4 - 1 - 13 753 2022-06-30 16:35:34
912 Epilogue [PB] 1,066,660 913 - 35 - 1 - 3 - 12 556 2022-06-30 16:32:56
962 Epilogue [PB] 837,435 909 - 36 - 3 - 4 - 17 329 2022-06-30 16:30:54
1,023 Epilogue [PB] 1,120,685 900 - 47 - 2 - 3 - 21 614 2022-06-30 16:28:55
1,151 Epilogue [PB] 1,146,750 878 - 66 - 4 - 4 - 14 647 2022-06-30 16:27:08
1,229 Epilogue [SR] 755,755 873 - 66 - 5 - 8 - 17 260 2022-06-30 16:25:20
111 Epileptic Crisis [Heavy] [SR] 1,343,140 1,209 - 22 - 0 - 2 - 12 673 2022-06-30 00:48:05
76 Entrance [Deemo Cut] [SR] 1,633,135 1,075 - 15 - 0 - 4 - 0 1,039 2022-06-30 00:45:05
150 Elusive Reaches [SR] 2,472,170 2,199 - 22 - 4 - 1 - 12 1,257 2022-06-30 00:42:48
148 Dragonsbane [SR] 4,758,495 3,458 - 7 - 0 - 1 - 1 2,855 2022-06-30 00:38:09
69 Dolphin Island [SR] 1,838,745 2,279 - 31 - 4 - 7 - 14 579 2022-06-30 00:28:18
1,672 Black Key Etude 1,178,530 965 - 23 - 1 - 8 - 6 644 2022-06-30 00:22:11
5,664 Black Key Etude 595,630 665 - 54 - 0 - 9 - 9 218 2022-06-30 00:11:24
276 asdfmovie song [FC] [SR] 1,976,100 1,267 - 8 - 2 - 0 - 3 1,277 2022-06-28 23:33:57
250 Dead Batteries [FC] [SR] 3,374,990 2,171 - 7 - 1 - 0 - 2 2,179 2022-06-28 23:26:50
357 CQ Boss [FC] [SR] 1,859,720 1,190 - 12 - 0 - 0 - 4 1,202 2022-06-28 23:22:45
194 Coffin [FC] [PB] 1,157,555 746 - 1 - 0 - 0 - 1 747 2022-06-28 23:18:23
357 Coffin [FC] [SR] 1,155,365 740 - 5 - 2 - 0 - 6 747 2022-06-28 23:16:51
72 Can You Feel The Sunshine? [FC] [SR] 2,451,715 1,568 - 16 - 1 - 0 - 7 1,585 2022-06-28 23:15:07
560 Bus Rides With People [SR] 1,247,230 1,051 - 13 - 1 - 1 - 7 666 2022-06-28 23:11:34
101 Black Lair [FC] [SR] 2,246,200 1,441 - 10 - 0 - 0 - 5 1,451 2022-06-28 23:05:45
156 before... [FC] 1,956,345 1,250 - 14 - 1 - 0 - 3 1,265 2022-06-28 23:02:21
146 before... [FC] [PB] 1,957,135 1,252 - 13 - 0 - 0 - 2 1,265 2022-06-28 22:59:39
185 before... [FC] [SR] 1,952,825 1,238 - 25 - 2 - 0 - 3 1,265 2022-06-28 22:57:00
809 Speedcore Sunday [FC] [SR] 1,810,840 1,157 - 13 - 1 - 0 - 7 1,171 2022-06-28 17:17:10
213 Snow [Ca5] [FC] [SR] 1,251,535 805 - 3 - 0 - 0 - 2 808 2022-06-28 17:13:41
214 Slam the Door (Rogue Remix) [FC] [PB] 1,452,035 936 - 1 - 0 - 0 - 2 937 2022-06-28 17:10:27
332 Slam the Door (Rogue Remix) [FC] [SR] 1,450,680 931 - 6 - 0 - 0 - 1 937 2022-06-28 17:04:40
311 Sigh [FC] [SR] 1,580,545 1,014 - 7 - 0 - 0 - 4 1,021 2022-06-28 17:01:00
333 Sicilian Sun [FC] [SR] 1,741,020 1,120 - 4 - 0 - 0 - 4 1,124 2022-06-28 16:58:08
497 Shanghai Girl of Meiji 17 [FC] [SR] 2,971,620 1,909 - 10 - 0 - 0 - 4 1,919 2022-06-28 16:54:40
505 Scars Left By Time [SR] 707,220 735 - 17 - 1 - 2 - 7 299 2022-06-28 16:47:23
55 Sarcophagus [FC] [SR] 2,278,910 1,467 - 4 - 0 - 0 - 2 1,471 2022-06-28 01:49:11
166 Run Away [FC] [SR] 1,730,190 1,113 - 4 - 0 - 0 - 3 1,117 2022-06-28 01:45:53
180 ROCKER HELLCAT [FC] [SR] 1,793,010 1,152 - 5 - 1 - 0 - 1 1,158 2022-06-28 01:40:04
98 Radio [FC] [SR] 1,270,880 815 - 6 - 0 - 0 - 1 821 2022-06-28 01:37:30
244 Prismatic Lollipops [FC] [SR] 1,248,435 803 - 3 - 0 - 0 - 2 806 2022-06-28 01:35:00
231 Post-Human Dirge [SR] 1,504,215 1,310 - 11 - 0 - 1 - 0 781 2022-06-28 01:32:06
359 Determination [SR] 1,912,025 1,674 - 11 - 0 - 2 - 4 989 2022-06-27 23:59:25
451 DESTINY [orgt] [SR] 1,157,755 1,412 - 22 - 3 - 6 - 10 377 2022-06-27 23:56:10
283 Dandelion Sparkle!! [SR] 1,591,000 1,201 - 10 - 2 - 1 - 5 928 2022-06-27 23:53:10
381 Chronograph [FC] [PB] 1,896,880 1,209 - 18 - 0 - 0 - 1 1,227 2022-06-27 23:50:23
88 breathe [qfeileadh] [SR] 1,847,740 1,305 - 16 - 0 - 1 - 5 1,126 2022-06-27 23:47:13
438 Flight of the Bumble Bee [MonstDeath] [SR] 971,230 1,150 - 114 - 10 - 15 - 26 312 2022-06-27 23:43:47
535 Mermaid Island [SR] 965,905 1,169 - 69 - 2 - 9 - 17 307 2022-06-27 23:41:01
378 Rarity Attempts 400 Dresses (LOOMING MIX) [SR] 1,156,795 1,515 - 41 - 2 - 8 - 18 315 2022-06-27 23:38:13
844 Mario Minor [SR] 3,430,670 2,391 - 55 - 3 - 1 - 18 2,101 2022-06-27 23:34:38
486 Megalovania [SR] 1,776,120 1,572 - 52 - 4 - 2 - 19 898 2022-06-27 23:29:39
824 HAELEQUIN [PB] 1,226,235 1,410 - 40 - 5 - 4 - 15 441 2022-06-27 23:25:02
321 Guile of the Rime King [SR] 2,094,725 2,001 - 35 - 2 - 4 - 16 986 2022-06-27 23:21:50
1,419 Flight of the Bumblebee [Rimsky-Korsakov] [SR] 747,345 787 - 67 - 2 - 6 - 9 298 2022-06-27 23:17:27
1,131 Runny Mornings (SGX Mix) [PB] 984,760 1,036 - 25 - 5 - 3 - 13 409 2022-06-27 23:15:03
1,283 Runny Mornings (SGX Mix) [SR] 951,475 1,031 - 29 - 4 - 5 - 11 378 2022-06-27 23:12:25
1,248 Caprice No. 5 [SR] 1,173,000 1,224 - 70 - 2 - 4 - 16 482 2022-06-27 23:08:26
319 Bird Sprite -Awakening of Light- [PB] 1,260,025 1,295 - 19 - 0 - 7 - 14 545 2022-06-26 20:39:58
682 Battle Theme #37 [PB] 1,287,640 1,316 - 18 - 0 - 3 - 9 560 2022-06-26 20:37:18
770 Battle Theme #37 [SR] 1,485,395 1,306 - 29 - 0 - 2 - 13 760 2022-06-26 20:35:02
385 Wonder World! v2 772,040 532 - 23 - 13 - 22 - 39 480 2022-06-26 20:31:09
256 Wonder World! v2 1,101,065 986 - 12 - 3 - 2 - 4 556 2022-06-26 20:30:02
377 Wonder World! v2 600,675 609 - 7 - 0 - 10 - 5 267 2022-06-26 20:28:21
240 Wonder World! v2 [SR] 1,110,950 990 - 10 - 2 - 1 - 5 564 2022-06-26 20:26:34
79 Two can't do it Alone [SR] 1,680,725 1,432 - 9 - 0 - 1 - 2 891 2022-06-26 20:24:24
324 Beadumaegen [FC] [PB] 2,047,540 1,308 - 15 - 1 - 0 - 2 1,324 2022-06-26 20:21:02
371 Beadumaegen [SR] 1,766,110 1,305 - 17 - 1 - 1 - 3 1,044 2022-06-26 20:18:14
88 As We Suffocate [SR] 1,625,920 1,339 - 33 - 1 - 2 - 2 881 2022-06-26 20:15:05
204 Artificial Rose [PB] 1,729,020 1,355 - 8 - 0 - 1 - 6 982 2022-06-26 20:11:35
338 Artificial Rose [SR] 1,295,315 1,339 - 20 - 3 - 2 - 9 554 2022-06-26 20:07:13
464 Angel Island Remix [FC] [SR] 1,793,420 1,149 - 9 - 1 - 0 - 3 1,159 2022-06-26 20:04:01
411 analyzed [FC] [PB] 1,486,500 941 - 22 - 0 - 0 - 5 963 2022-06-26 20:01:21
576 analyzed 1,170,530 924 - 30 - 2 - 3 - 5 655 2022-06-26 19:59:34
433 analyzed [SR] 1,120,240 944 - 13 - 1 - 5 - 2 599 2022-06-26 19:57:45
562 All Y'all Bitches [PB] 1,145,860 1,022 - 33 - 3 - 4 - 12 576 2022-06-26 19:55:38
582 All Y'all Bitches [SR] 1,305,815 1,016 - 40 - 3 - 3 - 11 737 2022-06-26 19:53:33
550 Cold Breath [FC] [SR] 1,339,355 860 - 5 - 0 - 0 - 1 865 2022-06-26 19:49:35
1 Galaxy in Toybox [Light] [AAA] [FC] [PB] 1,133,050 731 - 0 - 0 - 0 - 0 731 2022-06-26 16:05:16
209 Galaxy in Toybox [Light] [FC] [SR] 1,132,755 730 - 1 - 0 - 0 - 1 731 2022-06-26 16:02:53
1 Eirin's Clinic that People Queue Up For [AAA] [FC] [PB] 1,035,400 668 - 0 - 0 - 0 - 0 668 2022-06-26 15:59:15
274 Eirin's Clinic that People Queue Up For [FC] [SR] 1,035,380 668 - 0 - 0 - 0 - 1 668 2022-06-26 15:57:28
1 Delta Beat (0 Vector Mix) [AAA] [FC] [SR] 1,770,100 1,142 - 0 - 0 - 0 - 0 1,142 2022-06-26 15:49:40
1 Deep Breath [AAA] [FC] [SR] 1,227,600 792 - 0 - 0 - 0 - 0 792 2022-06-26 15:46:07
1 Bring The Madness [AAA] [FC] [SR] 1,306,650 843 - 0 - 0 - 0 - 0 843 2022-06-26 15:43:23
1 Blue Girl On Sunday [AAA] [FC] [PB] 1,351,600 872 - 0 - 0 - 0 - 0 872 2022-06-26 15:40:39
73 Blue Girl On Sunday [FC] [SR] 1,351,325 871 - 1 - 0 - 0 - 0 872 2022-06-26 15:37:55
1 Alpha Device [AAA] [FC] [PB] 962,550 621 - 0 - 0 - 0 - 0 621 2022-06-26 15:34:55
384 Alpha Device [FC] [SR] 962,275 620 - 1 - 0 - 0 - 0 621 2022-06-26 15:32:54
1 Affected [AAA] [FC] [PB] 1,182,650 763 - 0 - 0 - 0 - 0 763 2022-06-26 15:30:34
596 Affected [FC] [SR] 1,182,375 762 - 1 - 0 - 0 - 0 763 2022-06-26 15:26:09
1 A Happy Day in Funtown [AAA] [FC] [SR] 1,263,250 815 - 0 - 0 - 0 - 0 815 2022-06-26 15:23:35
1 5 Black Skulls [AAA] [FC] [SR] 1,447,700 934 - 0 - 0 - 0 - 0 934 2022-06-26 15:20:29
273 Thundersnail 616,115 603 - 37 - 2 - 2 - 10 275 2022-06-25 19:52:59
254 Thundersnail 832,345 613 - 29 - 0 - 2 - 8 488 2022-06-25 19:51:53
241 Thundersnail [SR] 872,870 617 - 25 - 1 - 1 - 5 527 2022-06-25 19:50:49
158 The Day The Sun Exploded 1,609,245 1,182 - 13 - 0 - 1 - 6 956 2022-06-25 19:49:33
138 The Day The Sun Exploded [SR] 1,609,910 1,185 - 9 - 1 - 1 - 3 956 2022-06-25 19:47:07
374 SigSig [SR] 1,570,580 1,637 - 38 - 4 - 4 - 10 661 2022-06-25 19:44:17
1,112 Rottel-da-station [SR] 1,217,905 1,189 - 23 - 2 - 4 - 12 559 2022-06-25 19:40:59
521 Puzzle [PB] 1,219,410 829 - 13 - 1 - 3 - 12 761 2022-06-25 19:38:17
692 Puzzle [SR] 705,245 808 - 31 - 2 - 5 - 12 254 2022-06-25 19:36:35
496 Largiloquent Dithyramb [SR] 2,139,505 1,570 - 30 - 1 - 4 - 3 1,269 2022-06-25 19:34:43
662 Black Key Etude [FC] [PB] 1,543,070 989 - 8 - 0 - 0 - 4 997 2022-06-25 19:28:35
994 Black Key Etude [PB] 1,054,755 982 - 12 - 1 - 2 - 4 512 2022-06-25 19:26:13
555 Arrogant Cobbler [SR] 1,663,330 1,395 - 21 - 1 - 5 - 10 892 2022-06-25 19:24:10
194 Within Life [FC] [SR] 1,918,090 1,236 - 1 - 1 - 0 - 2 1,238 2022-06-25 19:14:09
231 Witchcraft [FC] [PB] 1,473,460 949 - 2 - 0 - 0 - 2 951 2022-06-25 19:09:58
367 Witchcraft [SR] 1,102,775 945 - 5 - 0 - 1 - 2 582 2022-06-25 19:08:09
87 Wine & Roses [FC] [SR] 2,346,730 1,501 - 16 - 0 - 0 - 11 1,517 2022-06-25 19:05:43
39 wholeheartedly [FC] [SR] 1,963,135 1,256 - 12 - 1 - 0 - 1 1,269 2022-06-25 18:59:35
335 We Are The Vampires [PB] 1,120,965 1,061 - 11 - 2 - 2 - 5 535 2022-06-25 18:56:44
372 We Are The Vampires [SR] 875,805 1,058 - 13 - 0 - 5 - 6 292 2022-06-25 18:54:42
201 Venus Fire [SR] 2,671,870 2,033 - 20 - 0 - 2 - 8 1,549 2022-06-25 18:51:49
613 Twelve [PB] 1,646,970 1,122 - 8 - 4 - 1 - 12 1,028 2022-06-25 18:47:37
658 Twelve [PB] 1,092,810 1,117 - 15 - 1 - 2 - 5 475 2022-06-25 18:44:36
666 Twelve [FC] [SR] 1,753,360 1,117 - 15 - 3 - 0 - 14 1,135 2022-06-25 18:42:01
121 The Fated Hour [PB] 1,501,460 1,355 - 18 - 0 - 2 - 6 752 2022-06-25 18:39:11
151 The Fated Hour [SR] 1,497,210 1,337 - 35 - 1 - 2 - 10 753 2022-06-25 18:36:08
1 Xuxa [AAA] [FC] [PB] 1,094,300 706 - 0 - 0 - 0 - 0 706 2022-06-25 14:26:17
6,202 Xuxa 890,045 576 - 1 - 0 - 13 - 0 577 2022-06-25 14:24:05
610 Xuxa [FC] [SR] 1,093,475 703 - 3 - 0 - 0 - 0 706 2022-06-25 14:22:13
1 What's What [AAA] [FC] [PB] 953,250 615 - 0 - 0 - 0 - 0 615 2022-06-25 14:19:37
765 What's What [FC] [SR] 952,735 614 - 0 - 1 - 0 - 1 615 2022-06-25 14:17:35
1 Vanity Angel (Seraphim Mix) [AAA] [FC] [SR] 1,235,350 797 - 0 - 0 - 0 - 0 797 2022-06-25 14:15:04
1 Twilight Techno [AAA] [FC] [SR] 1,715,850 1,107 - 0 - 0 - 0 - 0 1,107 2022-06-25 14:12:37
1 Thinking Different [AAA] [FC] [SR] 1,398,100 902 - 0 - 0 - 0 - 0 902 2022-06-25 14:09:03
1 Sifon [AAA] [FC] [SR] 1,495,750 965 - 0 - 0 - 0 - 0 965 2022-06-25 14:06:21
691 System Failure 1,312,990 1,152 - 30 - 6 - 3 - 13 672 2022-06-25 01:25:17
612 System Failure [SR] 1,424,265 1,164 - 19 - 4 - 4 - 7 780 2022-06-25 01:21:23
191 Spear of Justice [FC] [PB] 1,767,095 1,136 - 5 - 0 - 0 - 4 1,141 2022-06-25 01:19:10
149 spanish [PB] 1,596,855 1,369 - 1 - 0 - 1 - 3 844 2022-06-25 01:16:04
299 spanish [SR] 1,594,095 1,361 - 7 - 2 - 1 - 9 844 2022-06-25 01:12:58
804 Southern Cross [SR] 3,286,015 2,113 - 8 - 1 - 1 - 4 2,122 2022-06-25 01:08:12
186 Soulcrusher [PB] 1,824,155 1,471 - 9 - 0 - 1 - 3 1,013 2022-06-25 01:04:03
223 Soulcrusher [SR] 1,731,940 1,468 - 9 - 1 - 3 - 3 923 2022-06-25 01:00:58
1 Shapeshifter (feat. Styles Of Beyond) [AAA] [FC] [SR] 1,780,950 1,149 - 0 - 0 - 0 - 0 1,149 2022-06-25 00:57:33
1 Ochitsukeruwakenaiwayo! [Standard] [AAA] [FC] [SR] 1,016,800 656 - 0 - 0 - 0 - 0 656 2022-06-25 00:53:28
1 NEXT STAGE!! [AAA] [FC] [SR] 1,286,500 830 - 0 - 0 - 0 - 0 830 2022-06-25 00:51:11
1 NeoMAX [AAA] [FC] [SR] 1,088,100 702 - 0 - 0 - 0 - 0 702 2022-06-25 00:47:54
1 Mercury Lamp [AAA] [FC] [SR] 1,625,950 1,049 - 0 - 0 - 0 - 0 1,049 2022-06-25 00:21:09
1 MaxX AttaxX [AAA] [FC] [SR] 1,133,050 731 - 0 - 0 - 0 - 0 731 2022-06-25 00:18:13
1 Legend of the Starfighter [AAA] [FC] [PB] 1,503,500 970 - 0 - 0 - 0 - 0 970 2022-06-25 00:16:07
444 Legend of the Starfighter [FC] [SR] 1,503,225 969 - 1 - 0 - 0 - 0 970 2022-06-25 00:13:24
1 In Aisles [AAA] [FC] [PB] 1,388,800 896 - 0 - 0 - 0 - 0 896 2022-06-25 00:10:22
310 In Aisles [FC] [PB] 1,388,485 895 - 1 - 0 - 0 - 2 896 2022-06-25 00:06:44
2,463 In Aisles [SR] 804,795 519 - 1 - 0 - 3 - 0 520 2022-06-25 00:04:06
2,649 I'm Alive (Jarvis Remix) 783,040 506 - 0 - 0 - 4 - 1 506 2022-06-25 00:00:47
2,660 I'm Alive (Jarvis Remix) 775,070 502 - 2 - 0 - 18 - 0 504 2022-06-24 23:59:08
180 I'm Alive (Jarvis Remix) [FC] [PB] 1,198,130 773 - 0 - 0 - 0 - 1 773 2022-06-24 23:57:18
206 I'm Alive (Jarvis Remix) [FC] [SR] 1,197,600 771 - 2 - 0 - 0 - 0 773 2022-06-24 23:53:36
1 Frozen Fire [AAA] [FC] [PB] 1,072,600 692 - 0 - 0 - 0 - 0 692 2022-06-24 23:51:06
11,917 Frozen Fire 752,075 485 - 1 - 0 - 3 - 1 486 2022-06-24 23:49:01
578 Frozen Fire [FC] [SR] 1,072,325 691 - 1 - 0 - 0 - 0 692 2022-06-24 23:47:27
382 SAMBISTA [FC] [PB] 1,372,370 874 - 14 - 0 - 0 - 9 888 2022-06-23 21:54:41
512 SAMBISTA [SR] 929,605 865 - 16 - 5 - 2 - 10 450 2022-06-23 21:52:29
351 rough [FC] [PB] 1,957,895 1,251 - 14 - 1 - 0 - 3 1,266 2022-06-23 21:50:13
401 rough [SR] 1,531,205 1,248 - 15 - 2 - 1 - 6 841 2022-06-23 21:47:38
113 RENDEZVOUS [FC] [SR] 1,724,400 1,106 - 8 - 0 - 0 - 5 1,114 2022-06-23 21:45:21
104 Rabbit And Warlord [FC] [PB] 1,790,635 1,148 - 8 - 1 - 0 - 1 1,157 2022-06-23 21:42:42
118 Rabbit And Warlord [SR] 1,317,110 1,144 - 12 - 0 - 1 - 4 685 2022-06-23 21:40:14
92 Polis Ruin [SR] 1,305,495 1,164 - 7 - 2 - 2 - 6 664 2022-06-23 21:37:17
456 Pokemon BW - Elite Four Battle [PB] 1,550,405 1,173 - 25 - 4 - 2 - 11 899 2022-06-23 21:34:38
518 Pokemon BW - Elite Four Battle 1,423,700 1,163 - 34 - 6 - 1 - 16 775 2022-06-23 21:32:24
520 Pokemon BW - Elite Four Battle 1,098,045 1,167 - 27 - 6 - 4 - 16 450 2022-06-23 21:28:33
514 Pokemon BW - Elite Four Battle 1,465,595 1,163 - 35 - 4 - 2 - 14 817 2022-06-23 21:26:17
2,998 Pokemon BW - Elite Four Battle 776,245 498 - 7 - 0 - 8 - 5 503 2022-06-23 21:17:51
3,186 Pokemon BW - Elite Four Battle 644,180 413 - 7 - 3 - 6 - 10 417 2022-06-23 21:15:13
471 Pokemon BW - Elite Four Battle [PB] 1,103,680 1,173 - 24 - 4 - 3 - 18 453 2022-06-23 21:14:18
284 Overdrive [Aaron Musslewhite] [PB] 1,626,880 1,253 - 15 - 1 - 1 - 7 934 2022-06-23 21:12:02
299 Overdrive [Aaron Musslewhite] [SR] 1,626,370 1,251 - 17 - 1 - 1 - 5 934 2022-06-23 21:09:09
166 Noushou Sakuretsu Girl [FC] [PB] 3,196,280 2,051 - 12 - 2 - 0 - 9 2,065 2022-06-23 21:05:49
261 Noushou Sakuretsu Girl [SR] 2,092,520 2,029 - 30 - 4 - 2 - 14 969 2022-06-23 21:01:49
483 Miraiya [FC] [PB] 1,710,035 1,090 - 13 - 4 - 0 - 13 1,107 2022-06-23 20:57:49
689 Miraiya [SR] 941,405 1,070 - 29 - 2 - 6 - 16 347 2022-06-23 20:55:22
1 Euthanasia [AAA] [FC] [PB] 1,261,700 814 - 0 - 0 - 0 - 0 814 2022-06-23 17:01:11
531 Euthanasia [FC] [SR] 1,261,680 814 - 0 - 0 - 0 - 1 814 2022-06-23 16:57:39
1 Enlighten Me [AAA] [FC] [SR] 694,400 448 - 0 - 0 - 0 - 0 448 2022-06-23 16:55:06
1 DT Rabbit Blood Festival [AAA] [FC] [SR] 1,681,750 1,085 - 0 - 0 - 0 - 0 1,085 2022-06-23 16:53:10
1 Disc Jockey MIKE [AAA] [FC] [SR] 956,350 617 - 0 - 0 - 0 - 0 617 2022-06-23 16:49:42
1 Clocktown [Theophany] [AAA] [FC] [PB] 1,410,500 910 - 0 - 0 - 0 - 0 910 2022-06-23 16:45:55
244 Clocktown [Theophany] [FC] [SR] 1,410,225 909 - 1 - 0 - 0 - 0 910 2022-06-23 16:42:40
69 Before Dawn [FC] [SR] 1,315,675 848 - 1 - 0 - 0 - 0 849 2022-06-23 16:27:17
1 bbblow [AAA] [FC] [SR] 1,199,700 774 - 0 - 0 - 0 - 0 774 2022-06-23 16:22:41
1 Atmosphere [AAA] [FC] [SR] 1,032,300 666 - 0 - 0 - 0 - 0 666 2022-06-23 16:19:36
1 An Old Story from Grandma (SHK Remake) [AAA] [FC] [SR] 1,650,750 1,065 - 0 - 0 - 0 - 0 1,065 2022-06-23 16:16:43
1 -Never ending journey- [AAA] [FC] [SR] 968,750 625 - 0 - 0 - 0 - 0 625 2022-06-23 16:11:38
53 Manhattan Lover [PB] 1,125,715 1,112 - 16 - 1 - 4 - 5 511 2022-06-20 17:45:49
57 Manhattan Lover [SR] 1,054,970 1,111 - 14 - 2 - 6 - 9 442 2022-06-20 17:42:09
217 Lorem Ipsum [PB] 1,834,225 1,420 - 13 - 0 - 1 - 2 1,050 2022-06-20 17:38:51
328 Lorem Ipsum [SR] 1,822,620 1,401 - 31 - 1 - 1 - 10 1,044 2022-06-20 17:35:26
176 Let's Get Crunk [PB] 1,121,985 1,203 - 23 - 2 - 6 - 12 456 2022-06-20 17:31:40
543 Let's Get Crunk [SR] 539,615 470 - 18 - 1 - 9 - 5 279 2022-06-20 17:28:58
446 Keep In Mind [PB] 1,704,205 1,356 - 15 - 0 - 2 - 5 955 2022-06-20 17:27:27
500 Keep In Mind [SR] 1,362,060 1,356 - 12 - 2 - 3 - 11 614 2022-06-20 17:24:44
82 Into the Arena [FC] [SR] 2,329,200 1,495 - 7 - 3 - 0 - 7 1,505 2022-06-20 17:21:38
192 Holy Samba Land [PB] 2,131,490 1,432 - 6 - 0 - 2 - 7 1,343 2022-06-20 17:18:20
195 Holy Samba Land [SR] 2,215,525 1,430 - 9 - 0 - 1 - 7 1,427 2022-06-20 17:15:35
88 hARPIES15HP [FC] 1,874,625 1,204 - 5 - 2 - 0 - 3 1,211 2022-06-20 17:12:37
421 hARPIES15HP 507,275 350 - 1 - 0 - 8 - 1 317 2022-06-20 17:10:06
86 hARPIES15HP [SR] 1,666,500 1,204 - 6 - 0 - 1 - 2 1,003 2022-06-20 17:07:24
230 Closer to the Core [SR] 1,272,375 1,107 - 15 - 4 - 2 - 10 660 2022-06-20 17:04:39
187 Aventyr [SR] 1,605,440 1,446 - 17 - 1 - 1 - 14 806 2022-06-20 17:01:59
1 Virtual Emotion [AAA] [FC] [SR] 1,159,400 748 - 0 - 0 - 0 - 0 748 2022-06-20 16:57:27
83 Tornado [FC] [SR] 1,803,925 1,163 - 1 - 0 - 0 - 0 1,164 2022-06-20 16:54:29
1 The Trees In Juarez [AAA] [FC] [SR] 768,800 496 - 0 - 0 - 0 - 0 496 2022-06-20 16:49:52
1 Stunt Flying (Sanxion7 Mix) [AAA] [FC] [SR] 1,457,000 940 - 0 - 0 - 0 - 0 940 2022-06-20 16:46:42
1 Story of Snowman and Sunshine Girl [Cut] [AAA] [FC] [SR] 871,100 562 - 0 - 0 - 0 - 0 562 2022-06-20 16:43:28
1 Sleet [AAA] [FC] [PB] 1,123,750 725 - 0 - 0 - 0 - 0 725 2022-06-20 16:41:26
246 Sleet [FC] [SR] 1,123,475 724 - 1 - 0 - 0 - 0 725 2022-06-20 16:37:22
1 Samurai Road -Determination- [AAA] [FC] [PB] 1,085,000 700 - 0 - 0 - 0 - 0 700 2022-06-20 16:33:18
487 Samurai Road -Determination- [FC] [SR] 1,084,980 700 - 0 - 0 - 0 - 1 700 2022-06-20 16:31:13
1 Mindreader [AAA] [FC] [SR] 1,213,650 783 - 0 - 0 - 0 - 0 783 2022-06-20 16:28:38
1 Metropolis Zone [AAA] [FC] [PB] 979,600 632 - 0 - 0 - 0 - 0 632 2022-06-20 16:25:18
961 Metropolis Zone [FC] [SR] 979,325 631 - 1 - 0 - 0 - 0 632 2022-06-20 16:23:34
447 Pretty Green Onions [FC] [PB] 2,485,355 1,601 - 3 - 0 - 0 - 1 1,604 2022-06-20 14:18:48
206 Plousia [FC] [SR] 1,829,115 1,176 - 5 - 0 - 0 - 3 1,181 2022-06-20 14:11:35
195 Piano Sonata No. 16 [FC] [SR] 1,401,650 901 - 4 - 0 - 0 - 0 905 2022-06-20 14:08:12
64 Pacsyndrome [SR] 1,592,045 1,478 - 3 - 0 - 2 - 3 779 2022-06-20 14:05:38
38 No Ordinary Love [FC] [SR] 3,412,940 2,197 - 6 - 0 - 0 - 3 2,203 2022-06-20 14:01:34
442 Ninja Lad [FC] [PB] 1,269,090 814 - 5 - 1 - 0 - 2 820 2022-06-20 13:24:41
549 Ninja Lad [SR] 884,570 812 - 6 - 0 - 2 - 3 437 2022-06-20 13:22:40
354 Nightrain [FC] [PB] 1,324,795 849 - 7 - 0 - 0 - 4 856 2022-06-20 13:17:35
459 Nightrain [FC] [SR] 1,322,570 842 - 13 - 1 - 0 - 8 856 2022-06-20 13:15:33
38 NEWALONE [FC] [SR] 1,699,210 1,093 - 4 - 0 - 0 - 2 1,097 2022-06-20 13:12:09
300 Myriagon [FC] [PB] 1,872,830 1,194 - 15 - 3 - 0 - 8 1,212 2022-06-20 13:08:13
346 Myriagon [SR] 1,279,545 1,185 - 24 - 1 - 2 - 12 622 2022-06-20 13:05:58
528 moon_child -Go with the flow- [SR] 1,549,545 1,194 - 8 - 1 - 1 - 5 891 2022-06-20 13:02:01
279 Missing You (Gammer Remix) [FC] [PB] 1,314,980 842 - 7 - 1 - 0 - 5 850 2022-06-20 12:58:14
403 Missing You (Gammer Remix) [SR] 1,084,900 828 - 19 - 1 - 2 - 8 625 2022-06-20 12:56:14
64 Mirrorball Airride 2012 [FC] [SR] 1,875,375 1,206 - 4 - 1 - 0 - 4 1,211 2022-06-20 12:53:36
1 Love U [Light] [AAA] [FC] [SR] 1,157,850 747 - 0 - 0 - 0 - 0 747 2022-06-19 22:04:21
1 Lethal Injection [AAA] [FC] [SR] 1,664,700 1,074 - 0 - 0 - 0 - 0 1,074 2022-06-19 22:00:24
1 Hyper Hyper -Definitive Version- [AAA] [FC] [SR] 1,191,950 769 - 0 - 0 - 0 - 0 769 2022-06-19 21:53:14
1 Headless Beast [AAA] [FC] [SR] 1,374,850 887 - 0 - 0 - 0 - 0 887 2022-06-19 21:50:11
1 Girl Directions [AAA] [FC] [SR] 961,000 620 - 0 - 0 - 0 - 0 620 2022-06-19 21:47:17
255 Ding Dong Song v2 [FC] [PB] 1,214,650 782 - 2 - 0 - 0 - 0 784 2022-06-19 21:45:13
322 Ding Dong Song v2 [SR] 1,213,045 782 - 1 - 0 - 1 - 1 783 2022-06-19 21:42:51
1 Cruel Whole (Abelcain Remix) [AAA] [FC] [SR] 1,829,000 1,180 - 0 - 0 - 0 - 0 1,180 2022-06-19 21:38:26
59 Battle Royale Rap Battle [FC] [SR] 2,358,825 1,521 - 1 - 0 - 0 - 0 1,522 2022-06-19 21:33:38
1 ATHOTH A GO!! GO!! [AAA] [FC] [PB] 759,500 490 - 0 - 0 - 0 - 0 490 2022-06-19 21:29:26
131 ATHOTH A GO!! GO!! [FC] [SR] 758,950 488 - 2 - 0 - 0 - 0 490 2022-06-19 21:27:38
1 Air Breeze [AAA] [FC] [PB] 1,145,450 739 - 0 - 0 - 0 - 0 739 2022-06-19 21:25:20
745 Air Breeze [FC] [PB] 1,145,155 738 - 1 - 0 - 0 - 1 739 2022-06-19 21:23:22
29,359 Air Breeze [SR] 13,985 9 - 1 - 0 - 4 - 0 10 2022-06-19 21:21:22
818 Lunar Saturation [FC] [SR] 1,694,730 1,087 - 7 - 1 - 0 - 5 1,095 2022-06-19 19:22:13
507 Love Coloured Master Spark (LUV2 Remix) [SR] 2,399,365 1,907 - 3 - 0 - 1 - 0 1,350 2022-06-19 19:18:16
98 Labradorite [FC] [SR] 2,025,395 1,301 - 7 - 0 - 0 - 4 1,308 2022-06-19 19:13:21
58 It Feels Like Home [FC] [SR] 1,111,530 711 - 6 - 2 - 0 - 14 719 2022-06-19 19:09:49
149 Incident Zero [SR] 1,675,195 1,394 - 14 - 1 - 1 - 5 905 2022-06-19 19:06:55
646 Ievan Polkka (Rin & Len ver.) [PB] 1,259,955 911 - 5 - 0 - 1 - 8 758 2022-06-19 19:03:19
915 Ievan Polkka (Rin & Len ver.) [SR] 992,245 901 - 15 - 0 - 1 - 6 493 2022-06-19 19:01:04
431 Iced Innocence [FC] [PB] 1,201,890 769 - 7 - 1 - 0 - 2 777 2022-06-19 18:58:15
555 Iced Innocence [SR] 872,770 763 - 10 - 2 - 2 - 6 451 2022-06-19 18:56:16
126 Holy Winter [FC] [SR] 2,336,300 1,504 - 4 - 0 - 0 - 0 1,508 2022-06-19 18:51:42
488 HEY HEY MONKEY [FC] [SR] 1,642,345 1,054 - 6 - 1 - 0 - 3 1,061 2022-06-19 18:47:01
253 Hero's Theme (w.i.p.) [FC] [SR] 1,707,825 1,101 - 1 - 0 - 0 - 0 1,102 2022-06-19 18:43:48
309 Gene Gadget Zone - Act 1 [SR] 1,884,915 1,392 - 6 - 1 - 1 - 4 1,118 2022-06-19 18:40:08
712 Gaussian Blur 2 [FC] [PB] 1,190,985 766 - 3 - 0 - 0 - 7 769 2022-06-19 18:31:29
714 Gaussian Blur 2 [SR] 884,500 766 - 2 - 0 - 1 - 2 463 2022-06-19 18:27:37
283 GABBA YAKUZA (RoughSketch 2011 Remix) [FC] [SR] 1,898,835 1,218 - 7 - 2 - 0 - 5 1,227 2022-06-19 18:23:38
81 Fur Elise Jam [FC] [SR] 1,429,810 913 - 10 - 2 - 0 - 10 925 2022-06-19 18:20:01
205 Funny Funky Freaky [SR] 1,203,170 1,216 - 18 - 4 - 2 - 9 530 2022-06-19 18:17:12
241 Freak [FC] [SR] 1,763,015 1,135 - 3 - 0 - 0 - 3 1,138 2022-06-19 18:14:32
490 Four Blocks Madness [SR] 1,668,940 1,195 - 15 - 1 - 1 - 9 1,008 2022-06-19 18:11:14
625 Fighting For Control [FC] [SR] 1,688,240 1,081 - 10 - 0 - 0 - 3 1,091 2022-06-19 18:08:30
272 Exotic Matter [FC] [PB] 1,571,490 1,006 - 8 - 2 - 0 - 6 1,016 2022-06-19 18:04:53
289 Exotic Matter [SR] 1,045,560 1,006 - 7 - 1 - 2 - 5 491 2022-06-19 18:01:28
301 EOS [FC] [PB] 1,992,180 1,282 - 4 - 0 - 0 - 1 1,286 2022-06-19 17:56:56
516 EOS [SR] 1,354,790 1,274 - 10 - 0 - 2 - 2 652 2022-06-19 17:53:45
681 End Night [FC] [SR] 1,743,550 1,120 - 6 - 0 - 0 - 5 1,126 2022-06-19 15:45:06
252 ecstatic ghost party as Nightmare [FC] [SR] 1,712,845 1,101 - 5 - 0 - 0 - 4 1,106 2022-06-19 15:41:32
231 DubstEpic Symph [SR] 952,250 812 - 5 - 1 - 2 - 8 505 2022-06-19 15:37:47
319 DO IT YOURSELF [FC] [SR] 1,508,950 967 - 8 - 0 - 0 - 5 975 2022-06-19 15:33:48
537 Do A Barrel Roll [FC] [SR] 1,614,625 1,036 - 7 - 0 - 0 - 5 1,043 2022-06-19 15:31:14
312 Disco Balls [FC] [PB] 1,324,535 849 - 6 - 1 - 0 - 6 856 2022-06-19 15:28:21
420 Disco Balls [PB] 966,120 843 - 10 - 2 - 1 - 4 500 2022-06-19 15:26:12
525 Disco Balls [SR] 851,165 836 - 16 - 1 - 3 - 8 388 2022-06-19 15:23:48
1,212 Classical Insanity [SR] 1,438,855 1,091 - 8 - 1 - 1 - 7 837 2022-06-19 15:21:14
790 Captain Murasa's Ass Anchor [SR] 903,170 785 - 18 - 0 - 1 - 11 467 2022-06-19 15:18:25
144 Boss of Nova [SR] 1,548,375 1,398 - 20 - 3 - 3 - 13 775 2022-06-19 15:16:20
614 Border of Maximum [FC] [SR] 1,715,605 1,098 - 10 - 1 - 0 - 5 1,109 2022-06-19 15:13:07
329 Beatrice [PB] 1,395,150 1,105 - 4 - 0 - 2 - 4 787 2022-06-18 23:44:11
252 Band Dynamics [FC] [SR] 2,255,975 1,453 - 3 - 0 - 0 - 0 1,456 2022-06-18 23:41:37
64 Back Out [SR] 1,170,945 1,173 - 9 - 0 - 2 - 3 524 2022-06-18 23:37:56
304 Artemis [FC] [SR] 1,680,545 1,077 - 8 - 1 - 0 - 3 1,086 2022-06-18 23:34:51
329 Art Of The Madness [FC] [SR] 1,783,395 1,145 - 6 - 1 - 0 - 3 1,152 2022-06-18 23:31:34
41 Arranging Matches [FC] [SR] 954,210 614 - 2 - 0 - 0 - 2 616 2022-06-18 23:28:58
503 Addict (Dr. Ozi Monsta r3mix) [FC] [PB] 1,551,790 995 - 6 - 2 - 0 - 11 1,003 2022-06-18 23:26:23
598 Addict (Dr. Ozi Monsta r3mix) [SR] 1,278,460 993 - 6 - 0 - 4 - 5 732 2022-06-18 23:23:45
303 Wolf by Night, Human in Dreams [FC] [SR] 1,623,980 1,043 - 5 - 1 - 0 - 5 1,049 2022-06-18 23:20:21
1 Witches Hat [AAA] [FC] [SR] 1,999,500 1,290 - 0 - 0 - 0 - 0 1,290 2022-06-18 22:53:20
652 what the f is this [FC] [SR] 858,355 550 - 3 - 2 - 0 - 4 555 2022-06-18 22:49:28
256 Turn Soonest to the Sea [FC] [SR] 2,165,700 1,394 - 4 - 0 - 0 - 5 1,398 2022-06-18 22:47:26
361 Truth (xKore Remix) [SR] 1,380,180 1,159 - 15 - 1 - 1 - 7 739 2022-06-18 22:43:13
547 The Epidemic of Unexpected Relapses [FC] [SR] 1,977,440 1,271 - 5 - 1 - 0 - 2 1,277 2022-06-18 22:37:32
544 the Article by Crow [SR] 1,430,590 1,313 - 14 - 0 - 1 - 5 705 2022-06-18 22:33:40
727 the Casket of Star [SR] 1,589,355 1,608 - 17 - 0 - 2 - 5 701 2022-06-18 22:30:30
457 teraholic [SR] 1,133,390 924 - 14 - 0 - 2 - 2 622 2022-06-18 22:26:45
67 Synth Synth Synth [FC] [PB] 1,429,745 920 - 3 - 0 - 0 - 4 923 2022-06-18 20:15:04
1 Survive [AAA] [FC] [SR] 2,772,950 1,789 - 0 - 0 - 0 - 0 1,789 2022-06-18 20:09:08
26 Super Charged [FC] [SR] 1,494,650 961 - 4 - 0 - 0 - 0 965 2022-06-18 20:03:40
193 Stuck [FC] [SR] 1,330,365 856 - 2 - 1 - 0 - 2 859 2022-06-18 20:00:49
1 Splinter [AAA] [FC] [SR] 1,904,950 1,229 - 0 - 0 - 0 - 0 1,229 2022-06-18 19:53:59
72 Snorestop [FC] [PB] 1,989,610 1,282 - 2 - 0 - 0 - 2 1,284 2022-06-18 19:50:04
325 Sirius [FC] [SR] 1,809,865 1,162 - 7 - 0 - 0 - 8 1,169 2022-06-18 19:46:14
105 Shotgun Senorita [SR] 1,802,830 1,385 - 9 - 1 - 1 - 7 1,039 2022-06-18 19:43:10
427 Session [SR] 1,367,245 946 - 1 - 0 - 1 - 1 847 2022-06-18 19:39:22
276 Red Sphere, Blue Sphere [SR] 1,266,770 878 - 12 - 0 - 1 - 6 781 2022-06-18 19:36:32
1,103 R176 [FC] [SR] 1,543,040 986 - 10 - 2 - 0 - 6 998 2022-06-18 19:34:07
609 R/\IN [FC] [SR] 1,110,895 711 - 7 - 0 - 0 - 4 718 2022-06-18 19:30:59
165 PWRPFF RAVES [SR] 1,520,695 1,482 - 19 - 2 - 2 - 6 701 2022-06-18 19:28:05
1,140 Pwntendo [PB] 1,152,070 1,124 - 17 - 1 - 2 - 12 530 2022-06-18 19:22:49
1,386 Pwntendo [SR] 1,148,025 1,112 - 27 - 2 - 3 - 9 530 2022-06-18 19:20:05
344 Phantasmagoria Mystical Adventure [SR] 1,185,150 928 - 8 - 0 - 1 - 7 673 2022-06-18 16:41:26
336 pain night grand tin [FC] [PB] 1,425,860 915 - 6 - 0 - 0 - 2 921 2022-06-18 16:36:14
450 pain night grand tin [FC] 1,424,440 911 - 9 - 1 - 0 - 7 921 2022-06-18 16:33:49
360 pain night grand tin [SR] 1,182,295 915 - 5 - 0 - 1 - 1 678 2022-06-18 16:29:34
374 Mysterious Desert [FC] [PB] 1,479,600 948 - 8 - 0 - 0 - 0 956 2022-06-18 16:25:55
456 Mysterious Desert [SR] 1,436,205 946 - 8 - 1 - 1 - 2 914 2022-06-18 16:22:39
370 Mortal Kombat Menu Metal [FC] [PB] 1,496,510 954 - 14 - 0 - 0 - 2 968 2022-06-18 16:19:08
38 Mine [FC] [SR] 3,550,695 2,290 - 1 - 0 - 0 - 4 2,291 2022-06-18 16:14:47
237 LUV CAN SAVE U [FC] [PB] 1,703,680 1,096 - 3 - 1 - 0 - 0 1,100 2022-06-18 16:08:25
319 LUV CAN SAVE U [FC] [SR] 1,702,460 1,092 - 7 - 1 - 0 - 6 1,100 2022-06-18 16:04:32
232 L'aventale [SR] 2,165,135 1,430 - 7 - 4 - 1 - 10 1,377 2022-06-18 16:01:16
148 INSERT COIN [SR] 989,200 881 - 1 - 1 - 2 - 3 505 2022-06-18 15:57:20
274 KISS CANDY FLAVOR [Heavy] [PB] 1,407,075 1,226 - 9 - 0 - 2 - 4 731 2022-06-18 15:54:24
356 KISS CANDY FLAVOR [Heavy] [SR] 1,403,760 1,219 - 14 - 0 - 4 - 15 731 2022-06-18 15:51:45
515 Indignant Divinity 748,985 606 - 11 - 2 - 1 - 7 413 2022-06-18 15:48:29
452 Indignant Divinity [FC] 957,325 607 - 13 - 0 - 0 - 5 620 2022-06-18 15:43:12
507 Indignant Divinity [FC] 956,390 606 - 11 - 3 - 0 - 5 620 2022-06-18 15:40:53
441 Indignant Divinity [FC] [SR] 957,440 608 - 11 - 1 - 0 - 2 620 2022-06-18 15:38:48
365 In Flux (5 Note Piano Prelude) [PB] 1,400,135 1,397 - 20 - 3 - 2 - 13 627 2022-06-18 13:45:32
317 Ice Disk [FC] [SR] 2,004,540 1,290 - 4 - 0 - 0 - 3 1,294 2022-06-18 13:40:58
1,282 Fuji-san [FC] [SR] 1,216,665 776 - 11 - 0 - 0 - 8 787 2022-06-18 13:37:27
640 Extreme Dishwasher Race [SR] 1,008,860 991 - 13 - 1 - 2 - 10 461 2022-06-18 13:35:01
41 Error Code [FC] [SR] 2,342,925 1,496 - 19 - 0 - 0 - 5 1,515 2022-06-18 13:32:20
965 Doomsayer [PB] 1,411,755 1,146 - 21 - 2 - 1 - 6 776 2022-06-18 13:27:51
1,027 Doomsayer [SR] 1,582,730 1,143 - 24 - 2 - 1 - 16 948 2022-06-18 13:25:22
811 Degenerates [FC] [SR] 2,619,645 1,673 - 21 - 0 - 0 - 14 1,694 2022-06-18 13:22:00
130 Dance With 12 Gauge [FC] [SR] 1,556,485 997 - 8 - 1 - 0 - 6 1,006 2022-06-18 13:17:21
845 Cosmic Orchestra [FC] [SR] 2,462,260 1,582 - 8 - 0 - 0 - 2 1,590 2022-06-18 13:14:17
1,383 Chlorophyll [FC] [SR] 1,843,665 1,169 - 25 - 0 - 0 - 8 1,194 2022-06-18 13:10:17
463 Ark [FC] [SR] 1,153,625 732 - 15 - 0 - 0 - 5 747 2022-06-18 13:06:42
547 {Frozen} [FC] [SR] 2,228,055 1,435 - 3 - 0 - 0 - 1 1,438 2022-06-17 23:48:55
1,009 {Big Boss} [SR] 604,900 590 - 4 - 0 - 2 - 4 280 2022-06-17 23:45:35
199 wonder weeny werewolf [FC] [SR] 1,363,815 871 - 10 - 1 - 0 - 2 882 2022-06-17 23:43:24
218 wiinter dream [FC] [SR] 1,380,500 889 - 2 - 0 - 0 - 0 891 2022-06-17 23:40:32
189 Who's the Spook [SR] 1,033,635 766 - 7 - 2 - 2 - 4 611 2022-06-17 23:38:03
100 Time 4 Your Medicine [PB] 756,605 591 - 7 - 0 - 1 - 3 430 2022-06-17 23:35:58
123 Time 4 Your Medicine [SR] 610,665 586 - 11 - 0 - 2 - 2 286 2022-06-17 23:31:42
155 The April Sunshine Shed [FC] [SR] 1,455,560 931 - 9 - 1 - 0 - 1 941 2022-06-17 23:29:20
316 TAKECORE OF YOURSELF [FC] [SR] 2,307,380 1,487 - 2 - 0 - 0 - 1 1,489 2022-06-17 23:26:10
360 Super Signal Force [SR] 880,720 882 - 12 - 0 - 2 - 3 393 2022-06-17 23:21:27
148 Steel River [SR] 1,141,560 805 - 15 - 1 - 1 - 3 695 2022-06-17 23:19:06
153 Shiratsuyu [SR] 1,707,850 1,102 - 8 - 0 - 1 - 7 1,100 2022-06-17 22:40:37
200 Prove Them Wrong [FC] [SR] 2,114,375 1,360 - 5 - 0 - 0 - 0 1,365 2022-06-17 22:37:25
190 Phantasy Story -Re:Start- [SR] 1,565,835 1,151 - 8 - 1 - 1 - 8 931 2022-06-17 22:33:35
1,209 Nova Pulser [SR] 859,210 751 - 9 - 1 - 1 - 3 444 2022-06-17 22:30:38
202 NKS2 (Ain't No Half-Steppin' Remix) [PB] 1,197,700 868 - 6 - 0 - 1 - 2 719 2022-06-17 22:26:28
261 NKS2 (Ain't No Half-Steppin' Remix) [SR] 951,370 864 - 8 - 0 - 3 - 5 475 2022-06-17 22:24:03
663 Lune Noir [PB] 1,086,830 733 - 10 - 0 - 3 - 7 682 2022-06-17 22:20:43
840 Lune Noir [SR] 933,560 726 - 13 - 3 - 4 - 12 532 2022-06-17 22:18:48
673 lolharp5000 [FC] [SR] 978,000 628 - 2 - 2 - 0 - 3 632 2022-06-17 22:16:29
1,661 Lawn Wake IV (Black) 1,089,500 1,020 - 29 - 5 - 5 - 10 522 2022-06-17 22:14:24
2,005 Lawn Wake IV (Black) 938,245 995 - 57 - 2 - 5 - 12 377 2022-06-17 22:12:03
143 Human World - Wandering Soul [SR] 1,109,270 850 - 8 - 0 - 1 - 6 640 2022-06-17 22:07:26
46 Full Blown Meltdown [FC] [SR] 1,793,735 1,155 - 2 - 1 - 0 - 6 1,158 2022-06-17 22:04:32
121 Forever [SR] 1,166,675 922 - 7 - 0 - 1 - 2 658 2022-06-17 22:00:24
186 Follow You (Virtual Riot Remix) [FC] [SR] 2,367,625 1,517 - 12 - 1 - 0 - 4 1,530 2022-06-17 21:57:37
75 FLESH FLASH [FC] [SR] 1,779,280 1,143 - 6 - 0 - 0 - 1 1,149 2022-06-17 21:53:20
221 Flame Repellent [FC] [SR] 1,777,575 1,146 - 1 - 0 - 0 - 0 1,147 2022-06-17 21:50:11
523 Fall Silently [SR] 1,368,525 970 - 16 - 1 - 1 - 6 831 2022-06-17 21:46:47
646 Fake Jazz [FC] [PB] 1,384,215 886 - 7 - 2 - 0 - 6 895 2022-06-17 20:27:22
856 Fake Jazz [PB] 1,076,300 879 - 13 - 1 - 2 - 8 590 2022-06-17 20:25:32
932 Fake Jazz [SR] 991,140 878 - 12 - 2 - 3 - 12 506 2022-06-17 20:23:45
448 Epic [FC] [SR] 1,820,700 1,173 - 2 - 0 - 0 - 0 1,175 2022-06-17 20:21:20
223 ELECTRiCiTY [SR] 1,664,770 1,093 - 12 - 0 - 2 - 3 1,061 2022-06-17 20:18:10
475 DMYK [FC] [SR] 2,347,110 1,511 - 4 - 0 - 0 - 2 1,515 2022-06-17 20:15:16
1 Dazzling Destiny [AAA] [FC] [SR] 1,500,400 968 - 0 - 0 - 0 - 0 968 2022-06-17 20:09:04
142 Concussive [FC] [SR] 1,703,175 1,098 - 1 - 0 - 0 - 0 1,099 2022-06-17 20:06:05
345 Child Protective Services Theme Song [Heavy] [SR] 1,084,630 974 - 7 - 1 - 3 - 6 548 2022-06-17 20:02:50
250 Autumn Breeze [SR] 1,124,260 1,039 - 8 - 0 - 1 - 4 551 2022-06-17 19:59:23
45 Anaphylaxis [FC] [SR] 2,704,180 1,743 - 2 - 0 - 0 - 1 1,745 2022-06-17 19:56:17
208 A correspondances illumitees [FC] [PB] 637,460 408 - 4 - 0 - 0 - 2 412 2022-06-17 19:52:04
323 A correspondances illumitees [PB] 429,655 403 - 6 - 1 - 2 - 4 207 2022-06-17 19:50:34
360 A correspondances illumitees [SR] 425,485 400 - 9 - 0 - 3 - 3 204 2022-06-17 19:49:06
215 Wonder Bullfighter ~A Barcelona cuando florece la lira~ [FC] [SR] 1,585,840 1,010 - 16 - 0 - 0 - 3 1,026 2022-06-17 19:32:18
69 TEM SHOP (Ben Briggs Glitch Hop Remix) [FC] [SR] 1,813,225 1,169 - 1 - 0 - 0 - 0 1,170 2022-06-17 19:29:05
883 Szamar Madar [FC] [SR] 1,694,285 1,089 - 5 - 0 - 0 - 2 1,094 2022-06-17 19:25:48
803 Starlight [Macgravel] [FC] [SR] 1,097,060 703 - 5 - 1 - 0 - 1 709 2022-06-17 19:22:40
347 Sexperation [SR] 1,588,015 1,169 - 5 - 0 - 1 - 0 944 2022-06-17 19:19:19
168 Problematic [SR] 986,850 867 - 1 - 1 - 1 - 1 510 2022-06-17 19:15:53
205 Premium Pine [FC] [SR] 2,033,360 1,307 - 6 - 0 - 0 - 7 1,313 2022-06-17 19:12:31
647 Over the Rave [SR] 1,589,070 1,027 - 2 - 0 - 1 - 1 1,024 2022-06-17 19:09:14
147 Obnoxious [FC] [PB] 665,100 426 - 3 - 1 - 0 - 4 430 2022-06-17 19:05:08
187 Obnoxious [PB] 539,005 424 - 4 - 1 - 1 - 2 305 2022-06-17 19:01:21
196 Obnoxious [FC] [PB] 664,075 423 - 5 - 2 - 0 - 3 430 2022-06-17 18:57:59
198 Obnoxious [FC] [SR] 664,160 422 - 8 - 0 - 0 - 7 430 2022-06-17 18:56:08
346 Nintendon't [FC] [SR] 1,786,030 1,149 - 4 - 0 - 0 - 1 1,153 2022-06-17 18:54:30
88 Nica's Dream - The Game [FC] [PB] 926,035 595 - 3 - 0 - 0 - 2 598 2022-06-17 18:51:45
102 Nica's Dream - The Game [FC] [SR] 925,165 593 - 4 - 1 - 0 - 7 598 2022-06-17 18:50:13
1 Maelstrom [AAA] [FC] [PB] 1,174,900 758 - 0 - 0 - 0 - 0 758 2022-06-17 18:47:44
382 Maelstrom [PB] 1,003,470 755 - 2 - 0 - 1 - 1 588 2022-06-17 18:45:48
500 Maelstrom [SR] 906,275 753 - 3 - 0 - 2 - 4 492 2022-06-17 18:41:44
77 Luv 5 Dancer [SR] 1,058,550 975 - 6 - 0 - 1 - 2 521 2022-06-17 18:39:29
558 Legend [FC] [SR] 1,763,560 1,133 - 5 - 1 - 0 - 1 1,139 2022-06-17 18:00:22
557 Jelly Roll Blues [FC] [SR] 1,204,780 774 - 4 - 0 - 0 - 1 778 2022-06-17 17:55:19
74 Dracula Man X2 Alpha Turbo [FC] [SR] 2,395,455 1,543 - 3 - 0 - 0 - 1 1,546 2022-06-17 17:52:35
342 Down [FC] [SR] 1,134,970 729 - 4 - 0 - 0 - 4 733 2022-06-17 17:48:46
521 Destined Marionette [SR] 1,746,440 1,125 - 4 - 0 - 1 - 5 1,127 2022-06-17 17:46:20
404 Creative Happy [FC] [SR] 1,604,775 1,028 - 9 - 0 - 0 - 5 1,037 2022-06-17 17:41:46
105 Castorpollux [FC] [SR] 1,706,645 1,097 - 5 - 0 - 0 - 4 1,102 2022-06-17 17:38:47
165 Bang [FC] [PB] 2,014,540 1,290 - 11 - 1 - 0 - 2 1,302 2022-06-17 17:33:52
107 Bad Boy [FC] [PB] 1,817,030 1,169 - 4 - 0 - 0 - 1 1,173 2022-06-17 17:29:22
117 A.SHU.R.A.-Frontier ReMix- [FC] [SR] 1,456,155 937 - 3 - 0 - 0 - 1 940 2022-06-17 17:25:43
270 My Little Pony Medley [Heavy] [FC] [PB] 1,589,590 1,019 - 8 - 0 - 0 - 3 1,027 2022-06-17 17:21:33
370 My Little Pony Medley [Heavy] 1,183,245 1,007 - 17 - 2 - 1 - 4 625 2022-06-17 17:19:37
324 My Little Pony Medley [Heavy] [FC] 1,587,605 1,012 - 15 - 0 - 0 - 6 1,027 2022-06-17 17:15:45
330 You will die [FC] [SR] 1,466,785 944 - 2 - 1 - 0 - 1 947 2022-06-16 22:20:17
131 Waterfall [FC] [PB] 2,600,880 1,678 - 0 - 0 - 0 - 1 1,678 2022-06-16 22:16:06
422 Velocity [FC] [SR] 1,481,210 954 - 2 - 0 - 0 - 2 956 2022-06-16 22:12:16
139 Turn Around [FC] [SR] 1,944,660 1,253 - 2 - 0 - 0 - 2 1,255 2022-06-16 22:09:30
298 Tougenkyou -H.E.Remix- [FC] [SR] 1,601,130 1,033 - 0 - 0 - 0 - 1 1,033 2022-06-16 22:05:27
464 Streets [SR] 983,365 930 - 1 - 0 - 1 - 5 472 2022-06-16 22:02:03
69 Second Earrings [FC] [SR] 1,593,085 1,027 - 1 - 0 - 0 - 2 1,028 2022-06-16 21:58:40
848 OTAKU SPEEDVIBE [Heavy] [FC] [SR] 1,624,240 1,043 - 6 - 0 - 0 - 3 1,049 2022-06-16 21:55:50
516 Ride Out! [FC] [SR] 2,030,320 1,305 - 6 - 0 - 0 - 4 1,311 2022-06-16 21:52:13
316 Ray of Moonlight [FC] [SR] 1,747,650 1,121 - 8 - 0 - 0 - 5 1,129 2022-06-16 21:48:33
637 System Doctor [PB] 1,463,295 1,840 - 193 - 10 - 37 - 43 410 2022-06-16 21:44:08
1,919 System Doctor [SR] 385,530 424 - 10 - 2 - 17 - 13 155 2022-06-16 21:40:25
121 {Stay With Me} [FC] [SR] 1,813,415 1,166 - 4 - 1 - 0 - 2 1,171 2022-06-16 21:37:17
1,588 {Rose} [PB] 1,917,590 1,296 - 4 - 0 - 1 - 0 1,204 2022-06-16 21:33:40
478 {Evolution} Out Stage [FC] [SR] 1,347,280 861 - 10 - 0 - 0 - 1 871 2022-06-16 21:30:37
437 Washamanoose's OP [FC] [SR] 1,872,555 1,204 - 5 - 0 - 0 - 1 1,209 2022-06-16 21:27:53
268 Walk on Water [FC] [SR] 1,702,880 1,097 - 2 - 0 - 0 - 1 1,099 2022-06-16 21:24:46
103 The Greet and Eat (Boss Theme) [PB] 1,092,045 941 - 3 - 0 - 1 - 1 574 2022-06-16 21:21:34
105 The Greet and Eat (Boss Theme) [FC] [PB] 1,463,020 939 - 6 - 0 - 0 - 4 945 2022-06-16 21:18:46
147 The Greet and Eat (Boss Theme) [PB] 1,154,115 930 - 12 - 1 - 2 - 6 640 2022-06-16 21:16:19
746 The Games We Played [Part 5] [FC] [PB] 1,956,940 1,256 - 8 - 0 - 0 - 3 1,264 2022-06-16 12:24:49
1,314 Tambourin Chinois [FC] [PB] 1,045,595 669 - 6 - 1 - 0 - 3 676 2022-06-16 12:19:46
1,607 Tambourin Chinois [PB] 925,890 665 - 9 - 1 - 1 - 4 558 2022-06-16 12:18:24
381 Syntax [PB] 1,029,745 674 - 5 - 0 - 1 - 1 658 2022-06-16 12:15:48
444 Syntax [FC] [PB] 1,050,975 669 - 11 - 0 - 0 - 0 680 2022-06-16 12:13:28
503 Syntax [SR] 732,875 668 - 10 - 1 - 1 - 1 363 2022-06-16 12:11:28
621 State of Emergency [FC] [PB] 1,214,630 782 - 2 - 0 - 0 - 1 784 2022-06-15 20:15:50
150 SAIKOU [FC] [PB] 1,328,525 853 - 5 - 0 - 0 - 0 858 2022-06-15 20:13:01
712 SAIKOU [SR] 639,660 418 - 0 - 0 - 4 - 0 411 2022-06-15 20:10:35
74 Robert Desire [FC] [SR] 1,826,070 1,175 - 3 - 1 - 0 - 3 1,179 2022-06-15 20:08:51
239 Revenge of Mister Foxsky [SR] 1,602,860 1,066 - 8 - 0 - 2 - 1 1,015 2022-06-15 20:05:09
230 Ongyilkos Vasarnap [FC] [SR] 1,241,960 798 - 4 - 0 - 0 - 2 802 2022-06-15 20:01:59
155 Miniboss [FC] [PB] 1,572,700 1,013 - 2 - 0 - 0 - 0 1,015 2022-06-15 19:58:47
121 Lycanthrope [SR] 1,312,600 1,028 - 13 - 1 - 1 - 6 744 2022-06-15 19:56:04
544 Legendary Etude [FC] [PB] 2,053,905 1,321 - 5 - 0 - 0 - 1 1,326 2022-06-15 19:53:11
359 IVALTEK [FC] [PB] 1,727,975 1,114 - 1 - 0 - 0 - 0 1,115 2022-06-15 19:49:21
589 IVALTEK [SR] 1,596,525 1,111 - 3 - 0 - 1 - 2 985 2022-06-15 19:46:36
68 Haunted [FC] [SR] 1,827,405 1,170 - 11 - 0 - 0 - 6 1,181 2022-06-15 19:43:25
402 Haruka Kanata [FC] [SR] 1,460,740 936 - 7 - 1 - 0 - 2 944 2022-06-15 19:39:34
52 Ever Forever [FC] [SR] 1,456,705 939 - 1 - 0 - 0 - 1 940 2022-06-15 19:37:11
87 Enharmonix [FC] [SR] 1,055,980 678 - 4 - 0 - 0 - 1 682 2022-06-15 19:34:35
597 Dot Matrix Hero [FC] [SR] 1,549,705 999 - 1 - 0 - 0 - 1 1,000 2022-06-15 19:16:39
262 Cheat Codes [FC] [PB] 932,825 601 - 1 - 0 - 0 - 0 602 2022-06-15 19:13:45
509 Cheat Codes [FC] [SR] 931,585 597 - 5 - 0 - 0 - 7 602 2022-06-15 19:11:55
947 Carrousel Paradise [FC] [SR] 1,466,435 942 - 5 - 0 - 0 - 2 947 2022-06-15 19:09:54
285 Caixa D'Aqua [FC] [SR] 1,369,905 883 - 1 - 0 - 0 - 1 884 2022-06-15 19:07:17
1 Brostep Strikes Back [AAA] [FC] [SR] 1,759,250 1,135 - 0 - 0 - 0 - 0 1,135 2022-06-15 19:04:32
115 Bohemian Chic [FC] [SR] 1,566,460 1,009 - 2 - 0 - 0 - 2 1,011 2022-06-15 19:01:25
207 Azure Emotion [FC] [PB] 1,604,305 1,026 - 11 - 0 - 0 - 1 1,037 2022-06-15 18:58:02
208 Azure Emotion [FC] [PB] 1,604,320 1,027 - 9 - 1 - 0 - 3 1,037 2022-06-15 18:51:21
208 Azure Emotion [SR] 1,434,995 1,027 - 9 - 0 - 1 - 1 868 2022-06-15 18:49:03
457 101 kittens [FC] [SR] 2,674,475 1,723 - 3 - 0 - 0 - 0 1,726 2022-06-15 18:46:17
367 Touch Me [FC] [SR] 1,673,585 1,074 - 7 - 0 - 0 - 2 1,081 2022-06-15 17:04:44
536 Torinouta (The Speed Freak's Noise Rave Remix) [FC] [PB] 1,778,850 1,146 - 2 - 0 - 0 - 0 1,148 2022-06-15 17:01:45
693 Synaxis Symphony [FC] [SR] 1,094,005 705 - 1 - 0 - 0 - 1 706 2022-06-15 16:57:17
224 Sunny Starry Carnival [FC] [PB] 1,441,480 930 - 0 - 0 - 0 - 1 930 2022-06-15 16:55:05
4,505 Sunny Starry Carnival 30,725 23 - 1 - 0 - 20 - 0 24 2022-06-15 16:52:57
445 Sunny Starry Carnival [FC] [SR] 1,439,555 923 - 7 - 0 - 0 - 1 930 2022-06-15 16:52:20
275 Alchemy [FC] [PB] 1,823,515 1,166 - 12 - 1 - 0 - 7 1,179 2022-06-15 01:14:05
350 Alchemy [SR] 1,356,410 1,157 - 17 - 3 - 2 - 8 716 2022-06-15 01:11:14
339 AcidAce-Alliance [FC] [PB] 1,328,675 850 - 8 - 1 - 0 - 4 859 2022-06-15 01:08:21
482 AcidAce-Alliance 1,323,990 838 - 20 - 0 - 1 - 5 858 2022-06-15 01:05:19
452 AcidAce-Alliance 994,870 842 - 15 - 1 - 1 - 5 528 2022-06-15 01:03:26
431 AcidAce-Alliance [SR] 1,006,055 844 - 13 - 0 - 2 - 5 539 2022-06-15 00:57:03
408 Prism [FC] [PB] 869,725 557 - 5 - 0 - 0 - 0 562 2022-06-15 00:48:49
1,155 Over the Frail Dream [PB] 866,380 782 - 6 - 0 - 1 - 3 435 2022-06-15 00:46:14
1,338 Over the Frail Dream 927,045 777 - 11 - 0 - 1 - 1 497 2022-06-15 00:44:28
1,289 Over the Frail Dream [SR] 907,535 779 - 9 - 0 - 1 - 4 477 2022-06-15 00:42:22
571 Nitrx [FC] [SR] 1,298,780 833 - 6 - 0 - 0 - 1 839 2022-06-15 00:40:07
498 Lives Without Meaning [FC] [PB] 1,116,820 714 - 8 - 0 - 0 - 4 722 2022-06-15 00:37:58
418 L9 [FC] [SR] 1,669,055 1,076 - 1 - 0 - 0 - 1 1,077 2022-06-15 00:35:20
238 Kodomoraibu [FC] [SR] 1,220,335 785 - 2 - 1 - 0 - 1 788 2022-06-15 00:32:21
519 Rocket Flight [FC] [SR] 857,285 549 - 5 - 0 - 0 - 2 554 2022-06-15 00:28:50
1,306 Lawn Wake IV (Black) [PB] 1,130,400 1,031 - 26 - 0 - 2 - 9 557 2022-06-15 00:25:50
1,516 Lawn Wake IV (Black) [SR] 997,700 1,027 - 25 - 1 - 6 - 11 428 2022-06-15 00:21:08
392 Kirby Smash [FC] [PB] 1,803,600 1,159 - 4 - 2 - 0 - 3 1,165 2022-06-15 00:17:19
37 BUBBLES [FC] [SR] 1,646,825 1,060 - 3 - 0 - 0 - 0 1,063 2022-06-15 00:10:55
1 Stricken [Heavy] [AAA] [FC] [SR] 2,157,600 1,392 - 0 - 0 - 0 - 0 1,392 2022-06-14 22:06:27
402 Stay Crunchy [FC] [SR] 1,746,160 1,120 - 8 - 0 - 0 - 2 1,128 2022-06-14 21:59:16
400 Scavenger [FC] [SR] 1,145,605 735 - 5 - 0 - 0 - 1 740 2022-06-14 21:56:00
1 Sagano Rakuyou Emaki [AAA] [FC] [SR] 1,384,150 893 - 0 - 0 - 0 - 0 893 2022-06-14 21:53:29
1 s.s.s.s. [AAA] [FC] [SR] 782,750 505 - 0 - 0 - 0 - 0 505 2022-06-14 21:49:08
336 Radiant [FC] [SR] 1,195,535 769 - 2 - 1 - 0 - 1 772 2022-06-14 21:46:46
1 Old Skool [AAA] [FC] [SR] 1,278,750 825 - 0 - 0 - 0 - 0 825 2022-06-14 21:44:34
433 Nanairopanda [FC] [SR] 1,830,000 1,179 - 2 - 0 - 0 - 0 1,181 2022-06-14 21:41:47
586 Mute City Remix [FC] [PB] 1,354,660 874 - 0 - 0 - 0 - 2 874 2022-06-14 21:38:18
1,175 Mute City Remix [SR] 1,345,460 869 - 3 - 1 - 1 - 3 867 2022-06-14 21:35:53
1 Jews 1 Oppressors 0 [AAA] [FC] [SR] 1,794,900 1,158 - 0 - 0 - 0 - 0 1,158 2022-06-14 21:32:52
160 Jeh Jeh Slammin' (Extended Mix) [FC] [SR] 1,827,175 1,178 - 1 - 0 - 0 - 0 1,179 2022-06-14 21:28:48
50 Heroes [FC] [SR] 1,749,320 1,127 - 2 - 0 - 0 - 4 1,129 2022-06-14 21:25:55
846 Forsaken Neon [FC] [PB] 1,006,655 647 - 3 - 0 - 0 - 1 650 2022-06-14 21:23:08
1,136 Forsaken Neon [FC] [SR] 1,005,575 643 - 7 - 0 - 0 - 0 650 2022-06-14 21:18:31
104 Eternal Excavation [FC] [SR] 1,778,850 1,146 - 2 - 0 - 0 - 0 1,148 2022-06-14 21:16:25
360 Dolphin Talk [FC] [PB] 1,369,530 877 - 8 - 0 - 0 - 1 885 2022-06-14 21:13:03
419 Dolphin Talk [FC] [SR] 1,368,410 873 - 12 - 0 - 0 - 2 885 2022-06-14 21:11:07
250 Disconnected [Pegboard Nerds] [FC] [SR] 1,714,195 1,102 - 4 - 1 - 0 - 3 1,107 2022-06-14 21:05:03
1 The Past [AAA] [FC] [PB] 1,074,150 693 - 0 - 0 - 0 - 0 693 2022-06-14 17:15:06
360 The Past [FC] [PB] 1,074,110 693 - 0 - 0 - 0 - 2 693 2022-06-14 17:11:11
416 The Past [FC] [SR] 1,073,835 692 - 1 - 0 - 0 - 2 693 2022-06-14 17:07:18
1 The Only Way To My Heart [AAA] [FC] [SR] 1,884,800 1,216 - 0 - 0 - 0 - 0 1,216 2022-06-14 17:04:08
1 That is Fair [AAA] [FC] [SR] 914,500 590 - 0 - 0 - 0 - 0 590 2022-06-14 16:59:45
1 tetris [Songs To Wear Pants To] [AAA] [FC] [SR] 558,000 360 - 0 - 0 - 0 - 0 360 2022-06-14 16:57:09
807 Crystal Wind [FC] [SR] 1,183,080 760 - 4 - 0 - 0 - 1 764 2022-06-13 20:17:52
1 Credits [Standard] [AAA] [FC] [SR] 1,142,350 737 - 0 - 0 - 0 - 0 737 2022-06-13 20:15:38
221 Case Closed [FC] [SR] 1,594,675 1,028 - 1 - 0 - 0 - 0 1,029 2022-06-13 20:13:14
303 Animus Intorqueo No. 1 [FC] [PB] 954,525 615 - 1 - 0 - 0 - 0 616 2022-06-13 20:09:01
432 Animus Intorqueo No. 1 [SR] 651,585 614 - 1 - 0 - 1 - 4 314 2022-06-13 20:07:30
243 Voodoo People [FC] [PB] 1,077,975 693 - 3 - 0 - 0 - 0 696 2022-06-13 20:05:21
569 Voodoo People [FC] [SR] 1,072,250 674 - 20 - 2 - 0 - 3 696 2022-06-13 20:03:20
98 The Great Pumpkin Tapes [FC] [SR] 1,188,040 765 - 1 - 1 - 0 - 2 767 2022-06-13 20:00:33
1 Starlight [Televisor] [AAA] [FC] [SR] 1,773,200 1,144 - 0 - 0 - 0 - 0 1,144 2022-06-13 19:53:44
104 Soda [FC] [SR] 1,450,680 931 - 6 - 0 - 0 - 1 937 2022-06-13 19:51:00
489 Shining Sky [FC] [SR] 2,055,395 1,322 - 5 - 0 - 0 - 4 1,327 2022-06-13 19:47:02
259 Rise Up [FC] [SR] 2,808,325 1,811 - 1 - 0 - 0 - 0 1,812 2022-06-13 19:43:11
1 Sakura no Kenshi [AAA] [FC] [SR] 1,878,600 1,212 - 0 - 0 - 0 - 0 1,212 2022-06-13 19:37:48
1 ROAR (Rage Mix) [AAA] [FC] [PB] 1,063,300 686 - 0 - 0 - 0 - 0 686 2022-06-13 19:32:29
878 ROAR (Rage Mix) [FC] [SR] 1,063,005 685 - 1 - 0 - 0 - 1 686 2022-06-13 19:30:35
1 Remember 15 Years Ago... [AAA] [FC] [SR] 1,365,550 881 - 0 - 0 - 0 - 0 881 2022-06-13 19:27:42
1 rainy beauty [Standard] [AAA] [FC] [SR] 940,850 607 - 0 - 0 - 0 - 0 607 2022-06-13 18:05:58
1 Pull in Pull in Popped Syo Call up Arrest [AAA] [FC] [SR] 1,091,200 704 - 0 - 0 - 0 - 0 704 2022-06-13 18:01:56
1 Pointless Fast Rap [AAA] [FC] [SR] 571,950 369 - 0 - 0 - 0 - 0 369 2022-06-13 17:59:20
1 Orchestral Angels [AAA] [FC] [SR] 1,691,050 1,091 - 0 - 0 - 0 - 0 1,091 2022-06-13 17:57:37
1 Oasis [ITG Cut] [AAA] [FC] [SR] 1,038,500 670 - 0 - 0 - 0 - 0 670 2022-06-13 17:54:21
1 No Fear Anymore [AAA] [FC] [PB] 1,057,100 682 - 0 - 0 - 0 - 0 682 2022-06-13 17:49:39
84 No Fear Anymore [FC] [SR] 1,056,550 680 - 2 - 0 - 0 - 0 682 2022-06-13 17:38:46
1 Less Talk More Rokk (Mark Saunders Remix) [AAA] [FC] [PB] 2,146,750 1,385 - 0 - 0 - 0 - 0 1,385 2022-06-13 17:06:04
16,561 Less Talk More Rokk (Mark Saunders Remix) 1,685,170 1,094 - 0 - 0 - 21 - 1 1,090 2022-06-13 17:01:25
448 Less Talk More Rokk (Mark Saunders Remix) [FC] [SR] 2,146,730 1,385 - 0 - 0 - 0 - 1 1,385 2022-06-13 16:56:58
1 Dimensions of a Square [AAA] [FC] [PB] 1,283,400 828 - 0 - 0 - 0 - 0 828 2022-06-13 16:49:24
69 PLAY (BEAUZ Remix) [FC] 1,008,905 647 - 4 - 1 - 0 - 5 652 2022-06-12 14:56:33
69 PLAY (BEAUZ Remix) [SR] 699,600 647 - 4 - 0 - 1 - 2 343 2022-06-12 14:53:20
1 OBLIVION [AAA] [FC] [SR] 1,399,650 903 - 0 - 0 - 0 - 0 903 2022-06-12 14:50:50
100 MIDI Beach [FC] [SR] 1,259,325 810 - 3 - 0 - 0 - 0 813 2022-06-12 14:48:19
338 Mario Mix for Piano [FC] [SR] 1,467,710 942 - 6 - 0 - 0 - 2 948 2022-06-12 14:45:31
1,007 Lovely Lovely Lovely [FC] [SR] 1,278,645 821 - 4 - 1 - 0 - 3 826 2022-06-12 14:42:17
1 Kronos [AAA] [FC] [SR] 1,188,850 767 - 0 - 0 - 0 - 0 767 2022-06-12 14:37:28
71 Jackhammer Manifesto [FC] [SR] 1,862,825 1,201 - 1 - 0 - 0 - 0 1,202 2022-06-12 14:34:52
1,172 Infernoplex [FC] [PB] 2,252,790 1,447 - 7 - 1 - 0 - 2 1,455 2022-06-12 14:30:54
865 Hungarian Dance No. 7 [PB] 664,775 506 - 3 - 0 - 1 - 2 386 2022-06-12 14:26:10
425 Gym Leader (RBY) [SR] 1,404,200 1,040 - 2 - 0 - 1 - 2 832 2022-06-12 14:23:58
713 Glove Stage - Ultra Sweden [FC] [SR] 1,253,025 806 - 3 - 0 - 0 - 5 809 2022-06-12 14:21:25
138 FrainBreeze [FC] [PB] 1,583,720 1,017 - 5 - 1 - 0 - 3 1,023 2022-06-12 14:18:37
171 FrainBreeze [SR] 1,233,055 1,013 - 8 - 1 - 1 - 2 674 2022-06-12 14:16:05
191 Fall Memories [FC] [SR] 1,281,750 822 - 6 - 0 - 0 - 0 828 2022-06-12 14:12:44
479 Endless Altercation [FC] [SR] 1,460,805 940 - 3 - 0 - 0 - 1 943 2022-06-12 14:09:05
889 dot death (Stealth Remix) [SR] 1,344,165 964 - 1 - 0 - 1 - 0 814 2022-06-12 14:06:21
437 Dokudenpa [FC] [SR] 2,479,725 1,599 - 1 - 0 - 0 - 0 1,600 2022-06-12 14:03:18
305 Dimensions of a Square [FC] [SR] 1,283,105 827 - 1 - 0 - 0 - 1 828 2022-06-12 13:57:50
80 Deadly Stealth [FC] [SR] 1,795,820 1,157 - 2 - 0 - 0 - 4 1,159 2022-06-12 13:53:08
797 Dazzling Soul [FC] 1,551,215 1,000 - 1 - 0 - 0 - 3 1,001 2022-06-12 13:32:06
796 Dazzling Soul [FC] 1,551,235 1,000 - 1 - 0 - 0 - 2 1,001 2022-06-12 13:23:33
1,884 Dazzling Soul [FC] 1,547,955 988 - 13 - 0 - 0 - 1 1,001 2022-06-12 13:21:03
1,034 Dazzling Soul [FC] 1,550,685 998 - 3 - 0 - 0 - 2 1,001 2022-06-12 13:12:33
796 Dazzling Soul [FC] [PB] 1,551,235 1,000 - 1 - 0 - 0 - 2 1,001 2022-06-12 12:54:33
270 Connect (HOUSE SOUL REMIX) [FC] [PB] 1,273,825 821 - 1 - 0 - 0 - 0 822 2022-06-12 12:49:50
903 Connect (HOUSE SOUL REMIX) [FC] [PB] 1,266,085 793 - 29 - 0 - 0 - 2 822 2022-06-12 12:45:54
2,311 Connect (HOUSE SOUL REMIX) [SR] 552,425 350 - 9 - 0 - 5 - 0 359 2022-06-12 12:40:46
196 Colors of the Wind [FC] [PB] 1,332,685 859 - 1 - 0 - 0 - 2 860 2022-06-11 12:42:23
586 Color of Giggles [FC] [SR] 1,280,750 823 - 4 - 0 - 0 - 0 827 2022-06-11 12:38:55
298 Coat Czech [FC] [SR] 1,038,420 670 - 0 - 0 - 0 - 4 670 2022-06-11 12:36:23
325 Champion Freeverse [FC] [SR] 1,302,705 838 - 3 - 0 - 0 - 1 841 2022-06-11 12:34:13
284 X-Y-Z [FC] [SR] 1,264,010 814 - 1 - 1 - 0 - 1 816 2022-06-11 12:30:25
346 WAIWAI230 [FC] [SR] 1,260,130 813 - 0 - 0 - 0 - 1 813 2022-06-11 12:27:50
169 Video Out B [FC] [SR] 1,353,325 869 - 5 - 0 - 0 - 0 874 2022-06-11 12:25:16
304 Tutti Frutti Summer Love [FC] [SR] 1,753,165 1,127 - 5 - 0 - 0 - 3 1,132 2022-06-11 12:22:51
1 Trobbel [AAA] [FC] [SR] 1,382,600 892 - 0 - 0 - 0 - 0 892 2022-06-11 12:07:49
452 Tribal Transcendency [FC] [SR] 1,760,760 1,136 - 0 - 0 - 0 - 2 1,136 2022-06-11 12:05:04
1 Feels [AAA] [FC] [SR] 551,800 356 - 0 - 0 - 0 - 0 356 2022-06-11 12:00:21
1 Whales of Iocaste [AAA] [FC] [SR] 317,750 205 - 0 - 0 - 0 - 0 205 2022-06-11 11:56:26
1 Insomnia (Acid Paradox remix) [AAA] [FC] [SR] 1,105,150 713 - 0 - 0 - 0 - 0 713 2022-06-11 11:53:53
1 House Leaves [AAA] [FC] [SR] 1,116,000 720 - 0 - 0 - 0 - 0 720 2022-06-11 11:51:04
1 Holy Prayer [AAA] [FC] [SR] 880,400 568 - 0 - 0 - 0 - 0 568 2022-06-11 11:48:21
1 Help Me Find My Child Or The Gold [AAA] [FC] [PB] 806,000 520 - 0 - 0 - 0 - 0 520 2022-06-11 11:45:58
290 Help Me Find My Child Or The Gold [FC] [SR] 805,705 519 - 1 - 0 - 0 - 1 520 2022-06-11 11:44:03
1 Fig Leaf Rag [AAA] [FC] [SR] 1,736,000 1,120 - 0 - 0 - 0 - 0 1,120 2022-06-11 11:41:42
1 Eternal Nightmare [AAA] [FC] [SR] 2,165,350 1,397 - 0 - 0 - 0 - 0 1,397 2022-06-11 11:38:06
1 Destiny [Smiley] [AAA] [FC] [PB] 948,600 612 - 0 - 0 - 0 - 0 612 2022-06-11 11:33:40
1 Courage [AAA] [FC] [SR] 1,289,600 832 - 0 - 0 - 0 - 0 832 2022-06-11 11:30:54
1 Card House Dreamer [AAA] [FC] [PB] 1,861,550 1,201 - 0 - 0 - 0 - 0 1,201 2022-06-11 11:26:41
5,665 Card House Dreamer 265,355 164 - 8 - 1 - 0 - 5 173 2022-06-11 11:22:39
5,736 Card House Dreamer 248,980 163 - 2 - 0 - 20 - 1 165 2022-06-11 11:13:10
356 Card House Dreamer [FC] [SR] 1,861,255 1,200 - 1 - 0 - 0 - 1 1,201 2022-06-11 11:11:51
1 Bloody Mary, Kate And Ashley [AAA] [FC] [PB] 1,484,900 958 - 0 - 0 - 0 - 0 958 2022-06-11 11:07:05
416 Tell Me A Story (Compendium Mix) [FC] [SR] 1,058,295 682 - 1 - 0 - 0 - 4 683 2022-06-09 18:18:21
354 System Split [FC] [PB] 1,437,260 924 - 4 - 0 - 0 - 2 928 2022-06-09 18:15:54
380 System Split [SR] 1,001,655 924 - 3 - 0 - 1 - 3 493 2022-06-09 18:13:23
156 Supporting Me... [FC] [SR] 1,677,510 1,079 - 4 - 0 - 0 - 2 1,083 2022-06-09 18:10:22
298 Song of the second moon [FC] [SR] 1,092,160 703 - 2 - 0 - 0 - 2 705 2022-06-09 18:07:27
340 Ska Cha Cha [FC] [SR] 1,633,070 1,052 - 2 - 0 - 0 - 4 1,054 2022-06-09 18:04:51
462 Reversing Darts [FC] [SR] 1,909,030 1,230 - 2 - 0 - 0 - 1 1,232 2022-06-09 18:02:12
1 White book [AAA] [FC] [SR] 778,100 502 - 0 - 0 - 0 - 0 502 2022-06-09 17:56:58
1 Vijore [AAA] [FC] [SR] 940,850 607 - 0 - 0 - 0 - 0 607 2022-06-09 17:54:48
1 Utopia [Smiley] [AAA] [FC] [SR] 1,232,250 795 - 0 - 0 - 0 - 0 795 2022-06-09 17:52:35
1 Tribe Attacker [AAA] [FC] [SR] 1,036,950 669 - 0 - 0 - 0 - 0 669 2022-06-09 17:48:53
1 The Wanderer [AAA] [FC] [PB] 1,629,050 1,051 - 0 - 0 - 0 - 0 1,051 2022-06-09 17:09:44
447 The Wanderer [FC] [SR] 1,628,775 1,050 - 1 - 0 - 0 - 0 1,051 2022-06-09 17:05:50
1 Synful Sub [AAA] [FC] [SR] 2,061,500 1,330 - 0 - 0 - 0 - 0 1,330 2022-06-09 17:00:57
1 Sunshine Stone [AAA] [FC] [SR] 1,348,500 870 - 0 - 0 - 0 - 0 870 2022-06-09 16:57:14
1 Sugar Rush [AAA] [FC] [SR] 1,063,300 686 - 0 - 0 - 0 - 0 686 2022-06-09 16:54:31
1 Spinning With You [AAA] [FC] [PB] 1,357,800 876 - 0 - 0 - 0 - 0 876 2022-06-09 16:52:06
303 Spinning With You [FC] [SR] 1,357,780 876 - 0 - 0 - 0 - 1 876 2022-06-09 16:49:37
1 Snowball Fight [AAA] [FC] [PB] 1,173,350 757 - 0 - 0 - 0 - 0 757 2022-06-09 16:46:45
833 Snowball Fight [FC] [SR] 1,173,055 756 - 1 - 0 - 0 - 1 757 2022-06-09 16:44:47
1 Reaching for the Floor [AAA] [FC] [SR] 2,114,200 1,364 - 0 - 0 - 0 - 0 1,364 2022-06-09 16:42:27
1 July [AAA] [FC] [SR] 1,122,200 724 - 0 - 0 - 0 - 0 724 2022-06-09 16:38:27
1 Indestructible [AAA] [FC] [PB] 1,542,250 995 - 0 - 0 - 0 - 0 995 2022-06-09 16:35:52
259 Indestructible [SR] 1,492,970 968 - 0 - 0 - 11 - 1 964 2022-06-09 16:32:45
1 Hate From Love [AAA] [FC] [SR] 830,800 536 - 0 - 0 - 0 - 0 536 2022-06-09 16:29:31
460 Relic Expedition Inanotherstar [FC] [SR] 1,452,760 934 - 4 - 0 - 0 - 2 938 2022-06-08 19:15:16
321 Ready to go [FC] [PB] 1,177,705 759 - 1 - 0 - 0 - 1 760 2022-06-08 19:12:29
373 Ready to go [SR] 1,110,550 757 - 2 - 0 - 1 - 2 694 2022-06-08 19:10:36
177 Railgun [FC] [SR] 1,435,005 925 - 1 - 0 - 0 - 1 926 2022-06-08 19:08:12
125 Power Rocket [FC] [SR] 1,106,405 713 - 1 - 0 - 0 - 1 714 2022-06-08 19:04:44
1 Play It Loud [AAA] [FC] [SR] 1,581,000 1,020 - 0 - 0 - 0 - 0 1,020 2022-06-08 19:02:06
1 Nebula [RushJet1] [AAA] [FC] [SR] 1,384,150 893 - 0 - 0 - 0 - 0 893 2022-06-08 18:58:59
1 Musicmaker RX [AAA] [FC] [SR] 1,455,450 939 - 0 - 0 - 0 - 0 939 2022-06-08 18:56:04
356 Melted Marble [FC] [PB] 1,216,475 784 - 1 - 0 - 0 - 0 785 2022-06-08 18:53:06
722 Melted Marble [SR] 941,335 775 - 9 - 0 - 1 - 4 513 2022-06-08 18:51:22
521 Megane De Ne! [FC] [PB] 2,153,730 1,388 - 1 - 1 - 0 - 0 1,390 2022-06-08 18:49:11
714 Megane De Ne! [SR] 1,765,555 1,386 - 2 - 1 - 1 - 2 1,003 2022-06-08 18:45:25
1 ASB [AAA] [FC] [PB] 1,329,900 858 - 0 - 0 - 0 - 0 858 2022-06-08 18:41:01
546 ASB [FC] 1,329,075 855 - 3 - 0 - 0 - 0 858 2022-06-08 18:38:01
2,371 ASB 1,278,165 828 - 1 - 0 - 21 - 0 829 2022-06-08 18:33:42
412 ASB [FC] [PB] 1,329,880 858 - 0 - 0 - 0 - 1 858 2022-06-08 18:30:17
639 ASB [FC] [SR] 1,328,760 854 - 4 - 0 - 0 - 2 858 2022-06-08 18:23:22
1 Hanabi [AAA] [FC] [PB] 1,512,800 976 - 0 - 0 - 0 - 0 976 2022-06-08 17:13:54
11,265 Hanabi 1,177,010 763 - 0 - 0 - 18 - 3 763 2022-06-08 17:11:40
616 Hanabi [FC] [SR] 1,512,525 975 - 1 - 0 - 0 - 0 976 2022-06-08 17:09:46
1 Flora [AAA] [FC] [PB] 1,136,150 733 - 0 - 0 - 0 - 0 733 2022-06-08 17:06:58
415 Flora 568,450 373 - 0 - 0 - 2 - 4 364 2022-06-08 17:04:17
92 Flora [FC] [SR] 1,135,835 732 - 1 - 0 - 0 - 2 733 2022-06-08 17:02:59
1 Dim Wood [AAA] [FC] [SR] 1,325,250 855 - 0 - 0 - 0 - 0 855 2022-06-08 17:00:26
1 Dawn [KaW] [AAA] [FC] [PB] 1,229,150 793 - 0 - 0 - 0 - 0 793 2022-06-08 16:57:23
1 CAULI FLOWER [AAA] [FC] [SR] 1,204,350 777 - 0 - 0 - 0 - 0 777 2022-06-08 16:53:17
1 Break Out! Break Out! [AAA] [FC] [PB] 1,043,150 673 - 0 - 0 - 0 - 0 673 2022-06-08 16:49:05
485 Break Out! Break Out! [FC] [PB] 1,042,600 671 - 2 - 0 - 0 - 0 673 2022-06-08 16:41:57
536 Break Out! Break Out! [FC] [SR] 1,042,580 671 - 2 - 0 - 0 - 1 673 2022-06-08 16:38:44
1 Big Dog [AAA] [FC] [SR] 1,054,000 680 - 0 - 0 - 0 - 0 680 2022-06-08 16:34:56
1 beyond the summer sky ~Maid To Order~ [AAA] [FC] [SR] 992,000 640 - 0 - 0 - 0 - 0 640 2022-06-08 16:32:11
1 Betrayal of Fate [AAA] [FC] [PB] 1,844,500 1,190 - 0 - 0 - 0 - 0 1,190 2022-06-08 16:29:22
317 Betrayal of Fate [FC] [SR] 1,843,950 1,188 - 2 - 0 - 0 - 0 1,190 2022-06-08 16:24:41
1 Badinerie [AAA] [FC] [PB] 790,500 510 - 0 - 0 - 0 - 0 510 2022-06-08 16:20:20
723 Badinerie [SR] 712,815 506 - 3 - 0 - 1 - 0 434 2022-06-08 16:18:28
68 Materialize Anything [FC] [SR] 1,536,030 991 - 0 - 0 - 0 - 1 991 2022-06-07 22:30:27
36 Like The Angel [FC] [PB] 2,138,450 1,378 - 2 - 0 - 0 - 0 1,380 2022-06-07 22:26:53
83 Like The Angel [SR] 1,751,160 1,133 - 5 - 3 - 21 - 1 1,133 2022-06-07 22:23:18
34 Koneko's Cafe [FC] [SR] 2,127,520 1,371 - 2 - 0 - 0 - 4 1,373 2022-06-07 22:19:13
334 Jazzman - Super Mario Bros [FC] [PB] 1,202,955 772 - 5 - 0 - 0 - 1 777 2022-06-07 22:15:00
1 Internet Heroes [AAA] [FC] [SR] 2,524,950 1,629 - 0 - 0 - 0 - 0 1,629 2022-06-07 22:12:33
123 Horizon Remix v2 [FC] [SR] 1,399,825 899 - 5 - 0 - 0 - 0 904 2022-06-07 22:08:22
627 HELLBEAT v2 [FC] [PB] 864,625 557 - 1 - 0 - 0 - 0 558 2022-06-07 22:05:47
1,303 HELLBEAT v2 [FC] [PB] 862,700 550 - 8 - 0 - 0 - 0 558 2022-06-07 22:04:00
1,513 HELLBEAT v2 [PB] 700,565 548 - 9 - 0 - 1 - 0 397 2022-06-07 22:02:45
1 {Sunlight} [AAA] [FC] [PB] 1,779,400 1,148 - 0 - 0 - 0 - 0 1,148 2022-06-07 18:10:19
277 {Sunlight} [FC] [SR] 1,778,850 1,146 - 2 - 0 - 0 - 0 1,148 2022-06-07 18:02:56
1 Wow, I Can Get Sexual Too [AAA] [FC] [PB] 1,461,650 943 - 0 - 0 - 0 - 0 943 2022-06-07 17:27:40
375 Wow, I Can Get Sexual Too [FC] [SR] 1,461,630 943 - 0 - 0 - 0 - 1 943 2022-06-07 17:24:29
1 What You Are [AAA] [FC] [SR] 1,333,000 860 - 0 - 0 - 0 - 0 860 2022-06-07 17:21:03
1 Victims and Martyrs [AAA] [FC] [PB] 1,850,700 1,194 - 0 - 0 - 0 - 0 1,194 2022-06-07 17:17:44
1 The Big Black [AAA] [FC] [PB] 1,119,100 722 - 0 - 0 - 0 - 0 722 2022-06-07 17:13:43
88 The Big Black [FC] [SR] 1,119,080 722 - 0 - 0 - 0 - 1 722 2022-06-07 17:09:41
1 Out of Sight, Out of Mind (8-Bit) [AAA] [FC] [SR] 1,171,800 756 - 0 - 0 - 0 - 0 756 2022-06-07 17:06:47
1 Moonbeam [AAA] [FC] [SR] 1,371,750 885 - 0 - 0 - 0 - 0 885 2022-06-07 17:03:41
1 Metal Crusher [AAA] [FC] [SR] 840,100 542 - 0 - 0 - 0 - 0 542 2022-06-07 16:54:55
1 Maple Leaf Rag [AAA] [FC] [SR] 1,790,250 1,155 - 0 - 0 - 0 - 0 1,155 2022-06-07 16:53:15
1 Lost [Kyrn] [AAA] [FC] [SR] 1,388,800 896 - 0 - 0 - 0 - 0 896 2022-06-07 16:49:58
1 Kyomu no Kareha no Tsumugiuta [AAA] [FC] [SR] 883,500 570 - 0 - 0 - 0 - 0 570 2022-06-07 16:46:40
1 iPatch's OP [AAA] [FC] [SR] 775,000 500 - 0 - 0 - 0 - 0 500 2022-06-07 16:44:21
1 Insignia [AAA] [FC] [PB] 1,418,250 915 - 0 - 0 - 0 - 0 915 2022-06-07 16:42:28
197 Insignia [FC] [PB] 1,418,230 915 - 0 - 0 - 0 - 1 915 2022-06-07 16:39:59
221 Insignia [FC] [SR] 1,417,955 914 - 1 - 0 - 0 - 1 915 2022-06-07 16:37:24
221 Final Boss [SR] 1,642,520 1,142 - 34 - 2 - 2 - 21 1,006 2022-06-06 21:36:10
537 Death Moon [SR] 1,813,810 1,673 - 128 - 16 - 6 - 28 860 2022-06-06 21:32:51
1,767 Club [SR] 675,785 488 - 72 - 3 - 10 - 24 391 2022-06-06 21:29:14
245 At The Speed Of Light 2,199,290 2,671 - 172 - 14 - 17 - 28 688 2022-06-06 21:27:10
255 At The Speed Of Light 1,979,680 2,661 - 177 - 15 - 21 - 43 474 2022-06-06 21:22:44
277 At The Speed Of Light 1,948,920 2,562 - 286 - 14 - 12 - 44 465 2022-06-06 21:17:42
151 THE BADDEST [SR] 1,874,345 1,619 - 53 - 2 - 1 - 24 970 2022-06-06 21:12:33
13,316 Exciting Hyper Highspeed Star 472,450 470 - 70 - 2 - 17 - 7 200 2022-06-06 21:08:44
2,164 Exciting Hyper Highspeed Star [SR] 1,044,870 1,200 - 120 - 4 - 13 - 16 356 2022-06-06 21:07:22
332 Gargoyle [FC] [SR] 2,276,280 1,462 - 8 - 0 - 0 - 1 1,470 2022-06-06 18:58:17
1 Futurity [AAA] [FC] [SR] 1,446,150 933 - 0 - 0 - 0 - 0 933 2022-06-06 18:54:33
405 Divinity [FC] [PB] 1,563,655 1,008 - 1 - 0 - 0 - 1 1,009 2022-06-06 18:51:46
110 Crystalline White [FC] [SR] 1,337,100 861 - 2 - 0 - 0 - 0 863 2022-06-06 18:48:22
547 Chaoz Japan [FC] [SR] 1,287,480 829 - 2 - 0 - 0 - 1 831 2022-06-06 18:45:13
293 Be-Music Polyphony [FC] [PB] 1,654,280 1,064 - 4 - 0 - 0 - 1 1,068 2022-06-06 18:42:57
435 Battle Ax [FC] [SR] 1,397,035 899 - 2 - 1 - 0 - 1 902 2022-06-06 18:40:14
239 A Lifetime (F-777 ReMiX) [FC] [SR] 1,396,255 900 - 1 - 0 - 0 - 1 901 2022-06-06 18:37:57
310 =.The Ocean.= [FC] [PB] 1,518,685 979 - 1 - 0 - 0 - 2 980 2022-06-06 18:35:20
401 =.The Ocean.= [PB] 1,485,845 978 - 1 - 0 - 1 - 1 948 2022-06-06 18:33:04
509 =.The Ocean.= [FC] [SR] 1,516,740 972 - 8 - 0 - 0 - 3 980 2022-06-06 18:30:21
1 Heel and Toe [AAA] [FC] [PB] 930,000 600 - 0 - 0 - 0 - 0 600 2022-06-06 18:26:52
671 Heel and Toe [FC] [SR] 929,430 598 - 2 - 0 - 0 - 1 600 2022-06-06 18:24:33
1 Guitar Vs. Piano [AAA] [FC] [PB] 1,565,500 1,010 - 0 - 0 - 0 - 0 1,010 2022-06-06 18:20:36
912 Guitar Vs. Piano [FC] [PB] 1,564,595 1,007 - 3 - 0 - 0 - 4 1,010 2022-06-06 18:17:11
31,662 Guitar Vs. Piano [SR] 538,020 343 - 3 - 3 - 0 - 31 349 2022-06-06 18:14:17
1 Find a Pet (Candy Mix) [AAA] [FC] [SR] 1,531,400 988 - 0 - 0 - 0 - 0 988 2022-06-06 18:10:10
1 Empty Garden [AAA] [FC] [PB] 899,000 580 - 0 - 0 - 0 - 0 580 2022-06-06 18:07:07
405 Empty Garden [SR] 896,845 578 - 1 - 0 - 1 - 1 579 2022-06-06 18:05:11
1 Cryosleep [AAA] [FC] [SR] 965,650 623 - 0 - 0 - 0 - 0 623 2022-06-06 18:02:46
1 Coactive [AAA] [FC] [SR] 1,247,750 805 - 0 - 0 - 0 - 0 805 2022-06-06 18:00:24
1 Chaotic Sound [AAA] [FC] [SR] 1,472,500 950 - 0 - 0 - 0 - 0 950 2022-06-06 17:54:35
1 CAPTAIN JACK (GRANDALE REMIX) [AAA] [FC] [PB] 1,043,150 673 - 0 - 0 - 0 - 0 673 2022-06-06 17:50:31
256 CAPTAIN JACK (GRANDALE REMIX) [FC] [SR] 1,043,110 673 - 0 - 0 - 0 - 2 673 2022-06-06 17:48:34
1 bossa nova of december [AAA] [FC] [PB] 1,410,500 910 - 0 - 0 - 0 - 0 910 2022-06-06 17:45:29
361 bossa nova of december [FC] [SR] 1,409,675 907 - 3 - 0 - 0 - 0 910 2022-06-06 17:42:45
1 Big Blue v2 [AAA] [FC] [SR] 1,066,400 688 - 0 - 0 - 0 - 0 688 2022-06-06 16:49:27
1 Back in the Day [AAA] [FC] [SR] 1,663,150 1,073 - 0 - 0 - 0 - 0 1,073 2022-06-06 16:46:44
1 {Adrenaline Pumper} [AAA] [FC] [SR] 1,678,650 1,083 - 0 - 0 - 0 - 0 1,083 2022-06-01 23:01:57
1 You're My Number One [AAA] [FC] [SR] 1,457,000 940 - 0 - 0 - 0 - 0 940 2022-06-01 22:59:05
337 Wish (Reprise) [FC] [SR] 1,425,430 918 - 2 - 0 - 0 - 1 920 2022-06-01 22:55:24
737 Wisdom [FC] [SR] 1,190,830 765 - 4 - 0 - 0 - 1 769 2022-06-01 22:51:53
1 Walking on a Dream [AAA] [FC] [SR] 1,452,350 937 - 0 - 0 - 0 - 0 937 2022-06-01 22:48:04
513 Video Out A [FC] [PB] 1,163,775 750 - 1 - 0 - 0 - 0 751 2022-06-01 22:45:29
395 The Games We Played [Part 4] [FC] [SR] 1,742,180 1,124 - 0 - 0 - 0 - 1 1,124 2022-06-01 22:42:48
441 The Brain of the Moon [FC] [SR] 3,308,700 2,133 - 2 - 0 - 0 - 0 2,135 2022-06-01 22:38:37
184 Suit Up [FC] [SR] 1,661,050 1,070 - 2 - 0 - 0 - 0 1,072 2022-06-01 22:33:16
313 Redirected Moonlight [FC] [PB] 1,243,550 799 - 4 - 0 - 0 - 0 803 2022-06-01 22:30:22
362 Pupil of Frenzy [FC] [SR] 2,225,485 1,435 - 1 - 0 - 0 - 2 1,436 2022-06-01 22:27:26
609 Nyanyanyanyanyanyanya! [FC] [SR] 1,031,475 663 - 3 - 0 - 0 - 0 666 2022-06-01 22:23:01
446 Nothing's Gonna Stop Me [FC] [SR] 943,655 608 - 1 - 0 - 0 - 1 609 2022-06-01 22:21:19
408 Night Walker [FC] [SR] 1,167,285 749 - 5 - 0 - 0 - 2 754 2022-06-01 22:19:37
1 Neon-213 [AAA] [FC] [PB] 1,015,250 655 - 0 - 0 - 0 - 0 655 2022-06-01 22:16:52
1 Live and Learn (Zen Death Squad Remix) [AAA] [FC] [SR] 1,143,900 738 - 0 - 0 - 0 - 0 738 2022-06-01 22:14:16
1 Interlude [AAA] [FC] [SR] 1,574,800 1,016 - 0 - 0 - 0 - 0 1,016 2022-06-01 22:10:51
70 Humanity [FC] [SR] 1,204,055 776 - 1 - 0 - 0 - 1 777 2022-06-01 22:07:58
1 Kagami [AAA] [FC] [SR] 1,351,600 872 - 0 - 0 - 0 - 0 872 2022-05-31 21:24:32
1 Gee (Areia Remix) [AAA] [FC] [PB] 1,253,950 809 - 0 - 0 - 0 - 0 809 2022-05-31 21:01:19
266 Gee (Areia Remix) [FC] [SR] 1,252,000 803 - 5 - 1 - 0 - 4 809 2022-05-31 20:58:41
342 Far Away From Home [FC] [SR] 1,493,905 963 - 1 - 0 - 0 - 1 964 2022-05-31 20:55:56
244 Exogenesis [FC] [PB] 1,459,785 941 - 1 - 0 - 0 - 2 942 2022-05-31 20:52:15
499 Exciting Hyper Highspeed Star v2 [FC] [SR] 1,524,630 982 - 2 - 0 - 0 - 1 984 2022-05-31 20:49:18
277 elegante [FC] [PB] 1,548,880 996 - 4 - 0 - 0 - 1 1,000 2022-05-31 20:46:42
419 elegante [SR] 1,146,630 989 - 7 - 3 - 1 - 5 601 2022-05-31 20:44:15
139 Donkey Punch [FC] [SR] 1,345,865 866 - 2 - 1 - 0 - 2 869 2022-05-31 20:41:20
1 Destination Unknown [AAA] [FC] [SR] 1,315,950 849 - 0 - 0 - 0 - 0 849 2022-05-31 20:37:58
191 C'est la Vie [FC] [SR] 2,472,230 1,595 - 0 - 0 - 0 - 1 1,595 2022-05-31 20:34:38
1 Automata [AAA] [FC] [SR] 1,260,150 813 - 0 - 0 - 0 - 0 813 2022-05-31 20:30:26
633 Amefuri Koneko [FC] [SR] 1,364,705 878 - 3 - 0 - 0 - 1 881 2022-05-31 20:27:44
953 AAA [FC] [SR] 1,607,055 1,036 - 1 - 0 - 0 - 1 1,037 2022-05-31 20:24:55
926 {Blaze} [FC] [SR] 2,125,735 1,369 - 3 - 0 - 0 - 2 1,372 2022-05-31 20:17:59
160 Yukidokeiro Flowers [FC] [SR] 1,487,705 959 - 1 - 0 - 0 - 1 960 2022-05-31 20:14:20
86 Wicked Laboratory [FC] [SR] 1,485,900 957 - 2 - 0 - 0 - 0 959 2022-05-31 20:11:26
1 Waltz In The Rain [AAA] [FC] [SR] 1,243,100 802 - 0 - 0 - 0 - 0 802 2022-05-31 20:08:21
172 Unpause the Heat [SR] 1,063,965 921 - 3 - 0 - 1 - 5 557 2022-05-31 20:05:32
223 Throwing Fire [FC] [SR] 1,505,030 971 - 0 - 0 - 0 - 1 971 2022-05-31 20:02:56
283 Thrash the Plank [FC] [PB] 1,381,775 889 - 3 - 0 - 0 - 0 892 2022-05-31 20:00:04
300 Thrash the Plank [SR] 976,445 890 - 1 - 0 - 1 - 1 487 2022-05-31 19:57:44
846 The Prototype [FC] [SR] 1,968,085 1,264 - 7 - 0 - 0 - 2 1,271 2022-05-31 19:55:18
1 Teeny Weeny String Bikini [AAA] [FC] [SR] 1,098,950 709 - 0 - 0 - 0 - 0 709 2022-05-31 19:52:01
328 Sunny Side Up [FC] [PB] 1,614,785 1,041 - 1 - 0 - 0 - 2 1,042 2022-05-31 19:49:27
468 Sunny Side Up [SR] 1,267,355 1,038 - 3 - 0 - 1 - 3 696 2022-05-31 19:47:22
109 Starchaser [FC] [SR] 1,258,050 810 - 2 - 0 - 0 - 0 812 2022-05-31 19:44:46
76 Spaceship Toyvox [FC] [SR] 1,461,375 942 - 1 - 0 - 0 - 0 943 2022-05-31 19:40:25
1 Sea Breeze [Standard] [AAA] [FC] [SR] 1,060,200 684 - 0 - 0 - 0 - 0 684 2022-05-31 17:52:15
593 Rumia, Sealed Youkai of the Night [FC] [SR] 1,793,740 1,154 - 4 - 0 - 0 - 3 1,158 2022-05-31 17:49:16
107 Ricochet [FC] [SR] 1,638,540 1,054 - 3 - 1 - 0 - 2 1,058 2022-05-31 17:45:09
1 Rast Kissing [AAA] [FC] [SR] 1,088,100 702 - 0 - 0 - 0 - 0 702 2022-05-31 17:41:49
1 On the Origin of Species (Evolution) [AAA] [FC] [SR] 1,016,800 656 - 0 - 0 - 0 - 0 656 2022-05-31 17:39:00
400 Progression [FC] [SR] 1,450,525 935 - 1 - 0 - 0 - 0 936 2022-05-31 17:36:18
446 Matador [FC] [SR] 1,592,830 1,026 - 2 - 0 - 0 - 1 1,028 2022-05-31 17:32:27
190 Lunatic [FC] [SR] 1,670,310 1,076 - 2 - 0 - 0 - 2 1,078 2022-05-30 19:43:11
1 Koi no Sakisaki Revolution desu yo [AAA] [FC] [SR] 1,584,100 1,022 - 0 - 0 - 0 - 0 1,022 2022-05-30 19:39:44
486 Innocent Decay [FC] [SR] 1,122,180 724 - 0 - 0 - 0 - 1 724 2022-05-30 19:36:45
226 Immigraniada (Bassnectar Remix) [FC] [SR] 1,735,430 1,118 - 2 - 0 - 0 - 1 1,120 2022-05-30 19:32:17
683 Gaussian Blur 3 [FC] [SR] 1,331,390 859 - 0 - 0 - 0 - 3 859 2022-05-30 19:28:36
61 Flare [FC] [SR] 1,241,235 800 - 1 - 0 - 0 - 2 801 2022-05-30 19:25:44
1 First Sighting [AAA] [FC] [SR] 1,370,200 884 - 0 - 0 - 0 - 0 884 2022-05-30 19:21:57
1 Final Fantasy 3 Boss [AAA] [FC] [SR] 1,210,550 781 - 0 - 0 - 0 - 0 781 2022-05-30 19:19:19
1 Fading Star [AAA] [FC] [SR] 1,309,750 845 - 0 - 0 - 0 - 0 845 2022-05-30 19:16:54
1 Earthquake On The Southern Texas Canyon [AAA] [FC] [PB] 936,200 604 - 0 - 0 - 0 - 0 604 2022-05-30 19:12:07
414 Earthquake On The Southern Texas Canyon [FC] [SR] 935,590 602 - 2 - 0 - 0 - 3 604 2022-05-30 19:10:48
388 Duality [FC] [SR] 1,621,025 1,045 - 1 - 0 - 0 - 0 1,046 2022-05-30 19:08:58
403 Comfort Betrays [FC] [SR] 1,859,685 1,199 - 1 - 0 - 0 - 2 1,200 2022-05-30 19:05:52
99 CHERRY DOLL [FC] [SR] 1,440,850 928 - 2 - 0 - 0 - 5 930 2022-05-30 19:02:30
1 Champions [AAA] [FC] [PB] 1,063,300 686 - 0 - 0 - 0 - 0 686 2022-05-30 18:58:46
176 Champions [FC] [SR] 1,063,280 686 - 0 - 0 - 0 - 1 686 2022-05-30 18:56:39
706 Brainwave [FC] [PB] 1,420,400 910 - 7 - 1 - 0 - 4 918 2022-05-30 18:53:55
779 Brainwave [SR] 1,216,520 909 - 7 - 1 - 1 - 5 715 2022-05-30 18:51:52
1 Binary Rendezvous [AAA] [FC] [SR] 1,044,700 674 - 0 - 0 - 0 - 0 674 2022-05-30 18:49:38
1 Alone [AAA] [FC] [SR] 953,250 615 - 0 - 0 - 0 - 0 615 2022-05-30 18:45:45
282 2008 [FC] [SR] 2,011,605 1,297 - 1 - 0 - 0 - 1 1,298 2022-05-30 18:43:08
554 20031023 [FC] [SR] 1,734,175 1,118 - 1 - 0 - 0 - 0 1,119 2022-05-30 18:39:59
342 16bitFruit [FC] [SR] 1,133,755 729 - 3 - 0 - 0 - 1 732 2022-05-30 18:36:16
1 Welcome 2 Omnicore [AAA] [FC] [PB] 657,200 424 - 0 - 0 - 0 - 0 424 2022-05-30 15:38:44
304 Welcome 2 Omnicore [FC] [PB] 656,905 423 - 1 - 0 - 0 - 1 424 2022-05-30 15:37:20
1 ULTRAnumb [AAA] [FC] [PB] 1,415,150 913 - 0 - 0 - 0 - 0 913 2022-05-30 15:34:14
1 TizAshura [AAA] [FC] [PB] 806,000 520 - 0 - 0 - 0 - 0 520 2022-05-30 15:30:38
1 X [AAA] [FC] [PB] 922,250 595 - 0 - 0 - 0 - 0 595 2022-05-30 15:28:41
1 X-Dreamer Final Cut [AAA] [FC] [PB] 942,400 608 - 0 - 0 - 0 - 0 608 2022-05-30 15:24:43
704 X-Dreamer Final Cut [FC] [SR] 942,125 607 - 1 - 0 - 0 - 0 608 2022-05-30 15:22:38
1 Wind Waker Unplugged [AAA] [FC] [PB] 1,284,950 829 - 0 - 0 - 0 - 0 829 2022-05-30 15:20:18
330 Wind Waker Unplugged [FC] [SR] 1,284,930 829 - 0 - 0 - 0 - 1 829 2022-05-30 15:17:14
1 Tsugaru 180 New Version [AAA] [FC] [SR] 998,200 644 - 0 - 0 - 0 - 0 644 2022-05-30 15:14:15
1 The Final Fantasy [AAA] [FC] [SR] 1,038,500 670 - 0 - 0 - 0 - 0 670 2022-05-30 15:11:40
1 Start Something [AAA] [FC] [PB] 570,400 368 - 0 - 0 - 0 - 0 368 2022-05-30 15:08:58
805 Start Something [FC] [PB] 570,380 368 - 0 - 0 - 0 - 1 368 2022-05-30 15:04:21
10,749 Start Something 475,575 306 - 1 - 0 - 0 - 0 307 2022-05-30 15:02:44
815 Start Something [FC] [SR] 570,125 367 - 1 - 0 - 0 - 0 368 2022-05-30 15:01:21
1 Song of Storms Dubstep Rap Remix [AAA] [FC] [PB] 954,800 616 - 0 - 0 - 0 - 0 616 2022-05-30 14:57:29
334 Song of Storms Dubstep Rap Remix [FC] [SR] 954,780 616 - 0 - 0 - 0 - 1 616 2022-05-30 14:55:24
1 Snow [Torley Wong] [AAA] [FC] [PB] 1,021,450 659 - 0 - 0 - 0 - 0 659 2022-05-30 14:52:35
266 Snow [Torley Wong] [FC] [SR] 1,021,175 658 - 1 - 0 - 0 - 0 659 2022-05-30 14:50:09
1 The Entertainer [AAA] [FC] [SR] 2,303,300 1,486 - 0 - 0 - 0 - 0 1,486 2022-05-29 23:10:13
1 Say It Right (Sanxion7 Remix) [AAA] [FC] [SR] 1,298,900 838 - 0 - 0 - 0 - 0 838 2022-05-29 23:05:52
1 Road To You [AAA] [FC] [SR] 1,240,000 800 - 0 - 0 - 0 - 0 800 2022-05-29 23:01:33
1 Resurrection In Progress [AAA] [FC] [PB] 1,055,550 681 - 0 - 0 - 0 - 0 681 2022-05-29 22:58:12
725 Resurrection In Progress [FC] [SR] 1,055,275 680 - 1 - 0 - 0 - 0 681 2022-05-29 22:54:58
1 Rainbow Road [Zorsy] [AAA] [FC] [PB] 934,650 603 - 0 - 0 - 0 - 0 603 2022-05-29 22:52:00
2,111 Rainbow Road [Zorsy] 873,615 567 - 1 - 0 - 21 - 0 568 2022-05-29 22:50:01
2,111 Rainbow Road [Zorsy] 873,615 567 - 1 - 0 - 21 - 0 568 2022-05-29 22:48:08
365 Rainbow Road [Zorsy] [FC] [SR] 934,630 603 - 0 - 0 - 0 - 1 603 2022-05-29 22:46:14
1 Preset Junkies VIP [AAA] [FC] [SR] 1,622,850 1,047 - 0 - 0 - 0 - 0 1,047 2022-05-29 22:43:37
1 Piasolute [AAA] [FC] [SR] 1,331,450 859 - 0 - 0 - 0 - 0 859 2022-05-29 22:39:46
1 Palindrome [AAA] [FC] [PB] 677,350 437 - 0 - 0 - 0 - 0 437 2022-05-29 22:36:12
33,054 Palindrome 257,335 167 - 1 - 0 - 9 - 0 168 2022-05-29 22:34:31
675 Palindrome [FC] [SR] 677,075 436 - 1 - 0 - 0 - 0 437 2022-05-29 22:33:40
1 Infinite Blue [AAA] [FC] [SR] 978,050 631 - 0 - 0 - 0 - 0 631 2022-05-29 22:30:51
1 Hyoukai [AAA] [FC] [SR] 1,212,100 782 - 0 - 0 - 0 - 0 782 2022-05-29 22:28:35
1 Gonna R*pe Kylie [AAA] [FC] [SR] 1,103,600 712 - 0 - 0 - 0 - 0 712 2022-05-29 22:25:27
1 Garden Party [AAA] [FC] [SR] 502,200 324 - 0 - 0 - 0 - 0 324 2022-05-29 22:23:13
1 GAMEBOY [AAA] [FC] [SR] 1,539,150 993 - 0 - 0 - 0 - 0 993 2022-05-29 22:21:38
1 Felys (Elegiac Mix) [AAA] [FC] [SR] 954,800 616 - 0 - 0 - 0 - 0 616 2022-05-29 22:17:02
1 Fantasia [AAA] [FC] [PB] 1,097,400 708 - 0 - 0 - 0 - 0 708 2022-05-29 22:14:44
644 Fantasia [FC] [SR] 1,097,380 708 - 0 - 0 - 0 - 1 708 2022-05-29 22:12:40
1 Exodus (On vocal ver.) [AAA] [FC] [SR] 1,109,800 716 - 0 - 0 - 0 - 0 716 2022-05-29 22:10:17
1 Bury Me on the Jedi Battlefield [AAA] [FC] [SR] 1,182,650 763 - 0 - 0 - 0 - 0 763 2022-05-29 22:07:30
1 Bricks [Light] [AAA] [FC] [SR] 1,029,200 664 - 0 - 0 - 0 - 0 664 2022-05-29 22:04:18
1 Bike Thief (Tubeway Remix) [AAA] [FC] [SR] 1,532,950 989 - 0 - 0 - 0 - 0 989 2022-05-29 22:02:17
1 A Firebrand, An Agitator [AAA] [FC] [SR] 928,450 599 - 0 - 0 - 0 - 0 599 2022-05-29 21:58:19
1 32A5 [AAA] [FC] [SR] 1,002,850 647 - 0 - 0 - 0 - 0 647 2022-05-29 21:55:59
1 ~Absolute Zero~ [AAA] [FC] [SR] 1,278,750 825 - 0 - 0 - 0 - 0 825 2022-05-28 21:23:23
1 Toxic [AAA] [FC] [SR] 1,953,000 1,260 - 0 - 0 - 0 - 0 1,260 2022-05-28 21:20:30
1 Tied The Room Together [AAA] [FC] [SR] 571,950 369 - 0 - 0 - 0 - 0 369 2022-05-28 21:13:23
1 The Space Between [AAA] [FC] [PB] 1,618,200 1,044 - 0 - 0 - 0 - 0 1,044 2022-05-28 21:11:44
460 The Space Between [FC] [SR] 1,617,925 1,043 - 1 - 0 - 0 - 0 1,044 2022-05-28 21:07:51
1 The Pylons Are TRAP BALLS [AAA] [FC] [PB] 852,500 550 - 0 - 0 - 0 - 0 550 2022-05-28 21:03:37
610 The Pylons Are TRAP BALLS [FC] [PB] 852,225 549 - 1 - 0 - 0 - 0 550 2022-05-28 21:01:50
1 Tetris Remix [AAA] [FC] [PB] 846,300 546 - 0 - 0 - 0 - 0 546 2022-05-28 20:59:45
1 Strength [AAA] [FC] [SR] 1,219,850 787 - 0 - 0 - 0 - 0 787 2022-05-28 20:57:00
1 Shin Trigger [AAA] [FC] [SR] 928,450 599 - 0 - 0 - 0 - 0 599 2022-05-28 20:53:46
1 Scarlet Mask [AAA] [FC] [SR] 871,100 562 - 0 - 0 - 0 - 0 562 2022-05-28 20:51:44
1 Roller Coaster Ride [AAA] [FC] [SR] 942,400 608 - 0 - 0 - 0 - 0 608 2022-05-28 20:48:51
1 Right Now BLUE Ver. [AAA] [FC] [SR] 1,098,950 709 - 0 - 0 - 0 - 0 709 2022-05-28 20:46:36
1 ReRicked [AAA] [FC] [SR] 620,000 400 - 0 - 0 - 0 - 0 400 2022-05-28 20:43:36
1 My Suit & Tie Life (D.licious Live Edit) [AAA] [FC] [SR] 877,300 566 - 0 - 0 - 0 - 0 566 2022-05-28 20:41:37
1 Kire Kire Mayoi [AAA] [FC] [SR] 950,150 613 - 0 - 0 - 0 - 0 613 2022-05-28 20:39:19
1 ice valley "beyond the searoad" [AAA] [FC] [PB] 1,151,650 743 - 0 - 0 - 0 - 0 743 2022-05-28 20:37:26
285 ice valley "beyond the searoad" [FC] [SR] 1,151,375 742 - 1 - 0 - 0 - 0 743 2022-05-28 20:35:02
1 Hillbilly Rodeo [AAA] [FC] [SR] 1,119,100 722 - 0 - 0 - 0 - 0 722 2022-05-28 20:32:28
1 Four Vents [AAA] [FC] [PB] 773,450 499 - 0 - 0 - 0 - 0 499 2022-05-28 20:28:50
683 Four Vents [FC] [SR] 772,900 497 - 2 - 0 - 0 - 0 499 2022-05-28 20:25:52
1 Forgotten Story [AAA] [FC] [SR] 1,120,650 723 - 0 - 0 - 0 - 0 723 2022-05-28 20:23:38
1 Dragon's Final Roar [AAA] [FC] [PB] 976,500 630 - 0 - 0 - 0 - 0 630 2022-05-28 20:20:33
1 Do Re Mi Fa Rondo [AAA] [FC] [SR] 1,303,550 841 - 0 - 0 - 0 - 0 841 2022-05-28 20:18:08
1 Crucial [AAA] [FC] [SR] 945,500 610 - 0 - 0 - 0 - 0 610 2022-05-28 20:01:01
1 Chinaman [AAA] [FC] [SR] 1,081,900 698 - 0 - 0 - 0 - 0 698 2022-05-28 19:57:59
1 Charge!!! [AAA] [FC] [SR] 1,077,250 695 - 0 - 0 - 0 - 0 695 2022-05-28 19:54:32
1 Calling [AAA] [FC] [SR] 1,212,100 782 - 0 - 0 - 0 - 0 782 2022-05-28 19:50:42
4,575 Silence 1,417,575 984 - 278 - 217 - 3 - 1,104 811 2022-05-28 19:46:41
810 Silence [FC] [SR] 2,292,715 1,467 - 14 - 1 - 0 - 2 1,482 2022-05-28 19:30:51
36,017 Fahrenheit 0 1 - 0 - 0 - 5 - 0 1 2022-05-28 19:27:02
36,090 Fahrenheit 0 1 - 0 - 0 - 11 - 0 1 2022-05-28 19:26:55
36,090 Fahrenheit 0 1 - 0 - 0 - 11 - 0 1 2022-05-28 19:26:48
298 Distant Land [FC] [SR] 1,586,885 1,023 - 1 - 0 - 0 - 2 1,024 2022-05-27 22:35:24
415 Manjushage [FC] [SR] 1,607,780 1,034 - 4 - 0 - 0 - 1 1,038 2022-05-27 22:30:18
270 {Colossus} [FC] [SR] 1,630,325 1,051 - 1 - 0 - 0 - 0 1,052 2022-05-27 22:24:47
1 {Paranorma} [AAA] [FC] [SR] 1,005,950 649 - 0 - 0 - 0 - 0 649 2022-05-27 22:19:59
1 We Won't Be Alone [AAA] [FC] [PB] 1,057,100 682 - 0 - 0 - 0 - 0 682 2022-05-27 22:14:01
170 We Won't Be Alone [FC] [SR] 1,056,825 681 - 1 - 0 - 0 - 0 682 2022-05-27 22:11:08
1 Utopia [Jason Forrest] [AAA] [FC] [SR] 607,600 392 - 0 - 0 - 0 - 0 392 2022-05-27 22:06:48
1 Tritsch Tratsch Polka [Light] [AAA] [FC] [PB] 874,200 564 - 0 - 0 - 0 - 0 564 2022-05-27 22:05:09
305 Tritsch Tratsch Polka [Light] 830,790 561 - 2 - 0 - 1 - 0 522 2022-05-27 22:03:13
218 Tritsch Tratsch Polka [Light] [FC] [SR] 873,925 563 - 1 - 0 - 0 - 0 564 2022-05-27 21:53:43
1 The Hop [AAA] [FC] [SR] 962,550 621 - 0 - 0 - 0 - 0 621 2022-05-27 21:51:29
1 Science Genius Girl (Robotkid's Lameboy Mix) [AAA] [FC] [PB] 1,305,100 842 - 0 - 0 - 0 - 0 842 2022-05-27 21:49:10
28,481 Science Genius Girl (Robotkid's Lameboy Mix) [SR] 48,430 40 - 0 - 0 - 5 - 1 28 2022-05-27 21:46:19
1 Lift Up [AAA] [FC] [PB] 1,232,250 795 - 0 - 0 - 0 - 0 795 2022-05-27 18:13:10
9,578 Lift Up 492,605 321 - 1 - 0 - 20 - 1 322 2022-05-27 18:10:31
1 Lettuce Regulation [AAA] [FC] [PB] 860,250 555 - 0 - 0 - 0 - 0 555 2022-05-27 18:07:18
229 Lettuce Regulation [FC] [SR] 859,955 554 - 1 - 0 - 0 - 1 555 2022-05-27 18:05:20
1 Lady's Cake [AAA] [FC] [PB] 564,200 364 - 0 - 0 - 0 - 0 364 2022-05-27 17:20:23
976 Lady's Cake [FC] 563,080 360 - 4 - 0 - 0 - 1 364 2022-05-27 17:14:32
709 Lady's Cake [FC] 563,925 363 - 1 - 0 - 0 - 0 364 2022-05-27 17:10:26
861 Lady's Cake 562,300 363 - 0 - 0 - 1 - 2 363 2022-05-27 17:05:27
13,705 Lady's Cake 89,630 55 - 3 - 1 - 0 - 25 59 2022-05-27 17:03:48
11,013 Lady's Cake 201,235 135 - 3 - 0 - 22 - 1 133 2022-05-27 17:01:38
796 Lady's Cake [FC] 563,905 363 - 1 - 0 - 0 - 1 364 2022-05-27 16:58:41
976 Lady's Cake [FC] 563,115 361 - 2 - 1 - 0 - 2 364 2022-05-27 16:52:45
700 Lady's Cake [FC] [PB] 564,180 364 - 0 - 0 - 0 - 1 364 2022-05-27 16:51:08
795 Lady's Cake [FC] [PB] 563,905 363 - 1 - 0 - 0 - 1 364 2022-05-27 16:48:24
930 Lady's Cake [FC] [SR] 563,335 361 - 3 - 0 - 0 - 2 364 2022-05-27 16:47:13
1 Jingle Bells (Bass) [AAA] [FC] [SR] 1,026,100 662 - 0 - 0 - 0 - 0 662 2022-05-27 16:45:25
1 2 3 4 5 6